Wetterdaten: Montag, 05.06.2023
Datum Zeit Temp. Aussen Temp. o. S. Temp +5cm Feuchte Auss Luftdruck Regen Sonnenschein Regendauer Solar Windben Empfang
05.06.2023 00:00 16,7 C 15,0 C 11,7 C 65 % 1021,2 hPa 0,0 l/m 0 min 0 min 0 W/m 0,0 km/h (0 Bft) 100,00 %
05.06.2023 00:02 16,7 C 15,0 C 11,7 C 63 % 1021,2 hPa 0,0 l/m 0 min 0 min 0 W/m 3,2 km/h (1 Bft) 97,22 %
05.06.2023 00:04 16,6 C 15,6 C 12,2 C 62 % 1021,2 hPa 0,0 l/m 0 min 0 min 0 W/m 3,2 km/h (1 Bft) 100,00 %
05.06.2023 00:08 16,6 C 15,6 C 12,2 C 63 % 1021,2 hPa 0,0 l/m 0 min 0 min 0 W/m 9,7 km/h (2 Bft) 100,00 %
05.06.2023 00:10 16,7 C 16,1 C 12,8 C 63 % 1021,2 hPa 0,0 l/m 0 min 0 min 0 W/m 3,2 km/h (1 Bft) 97,87 %
05.06.2023 00:12 16,7 C 16,1 C 12,8 C 63 % 1021,2 hPa 0,0 l/m 0 min 0 min 0 W/m 3,2 km/h (1 Bft) 100,00 %
05.06.2023 00:14 16,7 C 15,6 C 12,2 C 64 % 1021,2 hPa 0,0 l/m 0 min 0 min 0 W/m 6,4 km/h (2 Bft) 100,00 %
05.06.2023 00:16 16,7 C 16,1 C 12,8 C 64 % 1021,2 hPa 0,0 l/m 0 min 0 min 0 W/m 12,9 km/h (3 Bft) 100,00 %
05.06.2023 00:18 16,7 C 16,1 C 12,8 C 65 % 1021,3 hPa 0,0 l/m 0 min 0 min 0 W/m 3,2 km/h (1 Bft) 100,00 %
05.06.2023 00:20 16,8 C 15,6 C 12,8 C 66 % 1021,2 hPa 0,0 l/m 0 min 0 min 0 W/m 9,7 km/h (2 Bft) 97,87 %
05.06.2023 00:22 16,8 C 15,6 C 12,8 C 66 % 1021,3 hPa 0,0 l/m 0 min 0 min 0 W/m 6,4 km/h (2 Bft) 100,00 %
05.06.2023 00:24 16,8 C 15,6 C 12,8 C 67 % 1021,3 hPa 0,0 l/m 0 min 0 min 0 W/m 9,7 km/h (2 Bft) 97,83 %
05.06.2023 00:26 16,8 C 15,6 C 12,8 C 67 % 1021,3 hPa 0,0 l/m 0 min 0 min 0 W/m 12,9 km/h (3 Bft) 100,00 %
05.06.2023 00:28 16,8 C 15,6 C 12,2 C 68 % 1021,3 hPa 0,0 l/m 0 min 0 min 0 W/m 3,2 km/h (1 Bft) 97,87 %
05.06.2023 00:30 16,7 C 15,6 C 12,2 C 68 % 1021,3 hPa 0,0 l/m 0 min 0 min 0 W/m 9,7 km/h (2 Bft) 100,00 %
05.06.2023 00:32 16,7 C 15,6 C 12,2 C 68 % 1021,4 hPa 0,0 l/m 0 min 0 min 0 W/m 12,9 km/h (3 Bft) 97,87 %
05.06.2023 00:34 16,7 C 15,6 C 12,2 C 69 % 1021,4 hPa 0,0 l/m 0 min 0 min 0 W/m 3,2 km/h (1 Bft) 97,87 %
05.06.2023 00:36 16,7 C 15,6 C 12,2 C 69 % 1021,4 hPa 0,0 l/m 0 min 0 min 0 W/m 12,9 km/h (3 Bft) 100,00 %
05.06.2023 00:38 16,7 C 15,6 C 12,2 C 69 % 1021,5 hPa 0,0 l/m 0 min 0 min 0 W/m 3,2 km/h (1 Bft) 97,83 %
05.06.2023 00:40 16,7 C 15,6 C 12,2 C 69 % 1021,4 hPa 0,0 l/m 0 min 0 min 0 W/m 6,4 km/h (2 Bft) 97,87 %
05.06.2023 00:42 16,7 C 15,6 C 12,2 C 69 % 1021,4 hPa 0,0 l/m 0 min 0 min 0 W/m 16,1 km/h (3 Bft) 97,87 %
05.06.2023 00:44 16,7 C 15,6 C 12,2 C 69 % 1021,4 hPa 0,0 l/m 0 min 0 min 0 W/m 3,2 km/h (1 Bft) 97,37 %
05.06.2023 00:46 16,6 C 15,6 C 12,2 C 69 % 1021,4 hPa 0,0 l/m 0 min 0 min 0 W/m 6,4 km/h (2 Bft) 98,00 %
05.06.2023 00:48 16,6 C 15,6 C 12,2 C 69 % 1021,4 hPa 0,0 l/m 0 min 0 min 0 W/m 9,7 km/h (2 Bft) 95,83 %
05.06.2023 00:50 16,6 C 15,6 C 12,2 C 69 % 1021,4 hPa 0,0 l/m 0 min 0 min 0 W/m 6,4 km/h (2 Bft) 93,62 %
05.06.2023 00:52 16,6 C 15,6 C 12,2 C 69 % 1021,4 hPa 0,0 l/m 0 min 0 min 0 W/m 9,7 km/h (2 Bft) 90,70 %
05.06.2023 00:54 16,6 C 15,6 C 12,2 C 69 % 1021,4 hPa 0,0 l/m 0 min 0 min 0 W/m 12,9 km/h (3 Bft) 93,48 %
05.06.2023 00:56 16,6 C 15,6 C 12,2 C 69 % 1021,4 hPa 0,0 l/m 0 min 0 min 0 W/m 3,2 km/h (1 Bft) 93,62 %
05.06.2023 00:58 16,5 C 15,6 C 12,2 C 69 % 1021,4 hPa 0,0 l/m 0 min 0 min 0 W/m 6,4 km/h (2 Bft) 96,00 %
05.06.2023 01:00 16,4 C 15,6 C 12,2 C 69 % 1021,4 hPa 0,0 l/m 0 min 0 min 0 W/m 3,2 km/h (1 Bft) 91,67 %
05.06.2023 01:02 16,4 C 15,6 C 12,2 C 69 % 1021,4 hPa 0,0 l/m 0 min 0 min 0 W/m 3,2 km/h (1 Bft) 89,36 %
05.06.2023 01:04 16,4 C 15,0 C 11,7 C 69 % 1021,4 hPa 0,0 l/m 0 min 0 min 0 W/m 6,4 km/h (2 Bft) 93,75 %
05.06.2023 01:06 16,3 C 15,0 C 11,7 C 69 % 1021,4 hPa 0,0 l/m 0 min 0 min 0 W/m 3,2 km/h (1 Bft) 93,10 %
05.06.2023 01:08 16,3 C 15,0 C 11,7 C 69 % 1021,4 hPa 0,0 l/m 0 min 0 min 0 W/m 3,2 km/h (1 Bft) 91,67 %
05.06.2023 01:10 16,3 C 15,0 C 11,7 C 69 % 1021,4 hPa 0,0 l/m 0 min 0 min 0 W/m 12,9 km/h (3 Bft) 91,30 %
05.06.2023 01:12 16,2 C 15,0 C 11,7 C 69 % 1021,4 hPa 0,0 l/m 0 min 0 min 0 W/m 3,2 km/h (1 Bft) 95,74 %
05.06.2023 01:14 16,2 C 15,0 C 11,7 C 69 % 1021,4 hPa 0,0 l/m 0 min 0 min 0 W/m 3,2 km/h (1 Bft) 91,49 %
05.06.2023 01:16 16,2 C 15,0 C 11,7 C 70 % 1021,4 hPa 0,0 l/m 0 min 0 min 0 W/m 3,2 km/h (1 Bft) 93,62 %
05.06.2023 01:18 16,2 C 15,0 C 11,7 C 70 % 1021,4 hPa 0,0 l/m 0 min 0 min 0 W/m 6,4 km/h (2 Bft) 93,62 %
05.06.2023 01:20 16,1 C 15,0 C 11,7 C 70 % 1021,4 hPa 0,0 l/m 0 min 0 min 0 W/m 6,4 km/h (2 Bft) 93,62 %
05.06.2023 01:22 16,1 C 15,0 C 11,7 C 70 % 1021,3 hPa 0,0 l/m 0 min 0 min 0 W/m 9,7 km/h (2 Bft) 93,48 %
05.06.2023 01:24 16,1 C 15,0 C 11,7 C 70 % 1021,4 hPa 0,0 l/m 0 min 0 min 0 W/m 6,4 km/h (2 Bft) 95,74 %
05.06.2023 01:26 16,1 C 15,0 C 11,7 C 70 % 1021,4 hPa 0,0 l/m 0 min 0 min 0 W/m 12,9 km/h (3 Bft) 95,74 %
05.06.2023 01:28 16,1 C 15,0 C 11,7 C 70 % 1021,4 hPa 0,0 l/m 0 min 0 min 0 W/m 6,4 km/h (2 Bft) 97,87 %
05.06.2023 01:30 16,1 C 15,0 C 11,7 C 70 % 1021,4 hPa 0,0 l/m 0 min 0 min 0 W/m 3,2 km/h (1 Bft) 97,87 %
05.06.2023 01:32 16,1 C 15,0 C 11,7 C 71 % 1021,4 hPa 0,0 l/m 0 min 0 min 0 W/m 6,4 km/h (2 Bft) 95,74 %
05.06.2023 01:34 16,0 C 15,0 C 11,7 C 71 % 1021,4 hPa 0,0 l/m 0 min 0 min 0 W/m 3,2 km/h (1 Bft) 97,87 %
05.06.2023 01:36 16,0 C 15,0 C 11,7 C 71 % 1021,4 hPa 0,0 l/m 0 min 0 min 0 W/m 3,2 km/h (1 Bft) 97,14 %
05.06.2023 01:38 15,9 C 15,0 C 11,7 C 71 % 1021,4 hPa 0,0 l/m 0 min 0 min 0 W/m 6,4 km/h (2 Bft) 93,48 %
05.06.2023 01:40 15,9 C 15,0 C 11,7 C 71 % 1021,4 hPa 0,0 l/m 0 min 0 min 0 W/m 3,2 km/h (1 Bft) 97,87 %
05.06.2023 01:42 15,9 C 15,0 C 11,7 C 71 % 1021,4 hPa 0,0 l/m 0 min 0 min 0 W/m 12,9 km/h (3 Bft) 95,74 %
05.06.2023 01:44 15,9 C 15,0 C 11,7 C 71 % 1021,5 hPa 0,0 l/m 0 min 0 min 0 W/m 9,7 km/h (2 Bft) 93,62 %
05.06.2023 01:46 15,9 C 15,0 C 11,7 C 71 % 1021,5 hPa 0,0 l/m 0 min 0 min 0 W/m 3,2 km/h (1 Bft) 100,00 %
05.06.2023 01:48 15,9 C 15,0 C 11,7 C 71 % 1021,5 hPa 0,0 l/m 0 min 0 min 0 W/m 9,7 km/h (2 Bft) 97,87 %
05.06.2023 01:50 15,9 C 15,0 C 11,7 C 71 % 1021,5 hPa 0,0 l/m 0 min 0 min 0 W/m 6,4 km/h (2 Bft) 97,87 %
05.06.2023 01:52 15,9 C 15,0 C 11,7 C 71 % 1021,5 hPa 0,0 l/m 0 min 0 min 0 W/m 6,4 km/h (2 Bft) 100,00 %
05.06.2023 01:54 15,9 C 15,0 C 11,7 C 72 % 1021,5 hPa 0,0 l/m 0 min 0 min 0 W/m 9,7 km/h (2 Bft) 100,00 %
05.06.2023 01:56 15,9 C 15,0 C 11,7 C 72 % 1021,5 hPa 0,0 l/m 0 min 0 min 0 W/m 6,4 km/h (2 Bft) 97,87 %
05.06.2023 01:58 15,9 C 15,0 C 11,7 C 72 % 1021,4 hPa 0,0 l/m 0 min 0 min 0 W/m 9,7 km/h (2 Bft) 97,87 %
05.06.2023 02:00 15,8 C 15,0 C 11,7 C 72 % 1021,4 hPa 0,0 l/m 0 min 0 min 0 W/m 9,7 km/h (2 Bft) 100,00 %
05.06.2023 02:02 15,8 C 15,0 C 11,7 C 73 % 1021,5 hPa 0,0 l/m 0 min 0 min 0 W/m 3,2 km/h (1 Bft) 97,87 %
05.06.2023 02:04 15,8 C 15,0 C 11,7 C 73 % 1021,4 hPa 0,0 l/m 0 min 0 min 0 W/m 6,4 km/h (2 Bft) 100,00 %
05.06.2023 02:06 15,8 C 15,0 C 11,7 C 73 % 1021,5 hPa 0,0 l/m 0 min 0 min 0 W/m 6,4 km/h (2 Bft) 98,31 %
05.06.2023 02:08 15,8 C 14,4 C 11,7 C 73 % 1021,5 hPa 0,0 l/m 0 min 0 min 0 W/m 6,4 km/h (2 Bft) 97,14 %
05.06.2023 02:10 15,8 C 14,4 C 11,1 C 73 % 1021,5 hPa 0,0 l/m 0 min 0 min 0 W/m 6,4 km/h (2 Bft) 100,00 %
05.06.2023 02:12 15,8 C 14,4 C 11,1 C 73 % 1021,5 hPa 0,0 l/m 0 min 0 min 0 W/m 9,7 km/h (2 Bft) 100,00 %
05.06.2023 02:14 15,7 C 14,4 C 11,7 C 74 % 1021,5 hPa 0,0 l/m 0 min 0 min 0 W/m 6,4 km/h (2 Bft) 95,74 %
05.06.2023 02:16 15,7 C 14,4 C 11,7 C 73 % 1021,5 hPa 0,0 l/m 0 min 0 min 0 W/m 9,7 km/h (2 Bft) 95,65 %
05.06.2023 02:18 15,7 C 14,4 C 11,1 C 74 % 1021,5 hPa 0,0 l/m 0 min 0 min 0 W/m 3,2 km/h (1 Bft) 100,00 %
05.06.2023 02:20 15,7 C 14,4 C 11,1 C 74 % 1021,5 hPa 0,0 l/m 0 min 0 min 0 W/m 6,4 km/h (2 Bft) 98,21 %
05.06.2023 02:22 15,7 C 14,4 C 11,1 C 74 % 1021,5 hPa 0,0 l/m 0 min 0 min 0 W/m 3,2 km/h (1 Bft) 100,00 %
05.06.2023 02:24 15,7 C 14,4 C 11,1 C 74 % 1021,5 hPa 0,0 l/m 0 min 0 min 0 W/m 0,0 km/h (0 Bft) 98,00 %
05.06.2023 02:26 15,6 C 14,4 C 11,1 C 74 % 1021,5 hPa 0,0 l/m 0 min 0 min 0 W/m 3,2 km/h (1 Bft) 97,14 %
05.06.2023 02:28 15,6 C 14,4 C 11,1 C 74 % 1021,5 hPa 0,0 l/m 0 min 0 min 0 W/m 3,2 km/h (1 Bft) 100,00 %
05.06.2023 02:30 15,6 C 14,4 C 11,1 C 75 % 1021,5 hPa 0,0 l/m 0 min 0 min 0 W/m 3,2 km/h (1 Bft) 100,00 %
05.06.2023 02:32 15,6 C 14,4 C 11,1 C 75 % 1021,5 hPa 0,0 l/m 0 min 0 min 0 W/m 3,2 km/h (1 Bft) 97,87 %
05.06.2023 02:34 15,5 C 14,4 C 11,1 C 75 % 1021,5 hPa 0,0 l/m 0 min 0 min 0 W/m 3,2 km/h (1 Bft) 97,87 %
05.06.2023 02:36 15,5 C 14,4 C 11,1 C 75 % 1021,5 hPa 0,0 l/m 0 min 0 min 0 W/m 12,9 km/h (3 Bft) 97,87 %
05.06.2023 02:38 15,4 C 14,4 C 11,1 C 75 % 1021,5 hPa 0,0 l/m 0 min 0 min 0 W/m 3,2 km/h (1 Bft) 95,74 %
05.06.2023 02:40 15,4 C 14,4 C 11,1 C 75 % 1021,5 hPa 0,0 l/m 0 min 0 min 0 W/m 6,4 km/h (2 Bft) 95,74 %
05.06.2023 02:42 15,4 C 14,4 C 11,1 C 75 % 1021,5 hPa 0,0 l/m 0 min 0 min 0 W/m 3,2 km/h (1 Bft) 95,74 %
05.06.2023 02:44 15,4 C 14,4 C 11,1 C 75 % 1021,5 hPa 0,0 l/m 0 min 0 min 0 W/m 3,2 km/h (1 Bft) 97,83 %
05.06.2023 02:46 15,4 C 14,4 C 11,1 C 75 % 1021,5 hPa 0,0 l/m 0 min 0 min 0 W/m 3,2 km/h (1 Bft) 97,87 %
05.06.2023 02:48 15,3 C 13,9 C 11,1 C 75 % 1021,5 hPa 0,0 l/m 0 min 0 min 0 W/m 3,2 km/h (1 Bft) 97,87 %
05.06.2023 02:50 15,3 C 13,9 C 11,1 C 75 % 1021,5 hPa 0,0 l/m 0 min 0 min 0 W/m 6,4 km/h (2 Bft) 97,87 %
05.06.2023 02:52 15,3 C 13,9 C 11,1 C 76 % 1021,5 hPa 0,0 l/m 0 min 0 min 0 W/m 3,2 km/h (1 Bft) 95,74 %
05.06.2023 02:54 15,2 C 13,9 C 11,1 C 76 % 1021,5 hPa 0,0 l/m 0 min 0 min 0 W/m 3,2 km/h (1 Bft) 97,92 %
05.06.2023 02:56 15,2 C 13,9 C 10,6 C 76 % 1021,5 hPa 0,0 l/m 0 min 0 min 0 W/m 3,2 km/h (1 Bft) 91,30 %
05.06.2023 02:58 15,2 C 13,9 C 10,6 C 76 % 1021,5 hPa 0,0 l/m 0 min 0 min 0 W/m 3,2 km/h (1 Bft) 97,87 %
05.06.2023 03:00 15,1 C 13,9 C 10,6 C 76 % 1021,5 hPa 0,0 l/m 0 min 0 min 0 W/m 3,2 km/h (1 Bft) 97,87 %
05.06.2023 03:02 15,1 C 13,9 C 10,6 C 76 % 1021,5 hPa 0,0 l/m 0 min 0 min 0 W/m 0,0 km/h (0 Bft) 95,74 %
05.06.2023 03:04 15,1 C 13,9 C 10,6 C 76 % 1021,5 hPa 0,0 l/m 0 min 0 min 0 W/m 3,2 km/h (1 Bft) 100,00 %
05.06.2023 03:06 15,1 C 13,9 C 10,6 C 76 % 1021,5 hPa 0,0 l/m 0 min 0 min 0 W/m 3,2 km/h (1 Bft) 96,55 %
05.06.2023 03:08 15,0 C 13,9 C 10,6 C 76 % 1021,5 hPa 0,0 l/m 0 min 0 min 0 W/m 3,2 km/h (1 Bft) 100,00 %
05.06.2023 03:10 15,0 C 13,9 C 10,6 C 77 % 1021,5 hPa 0,0 l/m 0 min 0 min 0 W/m 6,4 km/h (2 Bft) 97,87 %
05.06.2023 03:12 14,9 C 13,9 C 10,6 C 77 % 1021,5 hPa 0,0 l/m 0 min 0 min 0 W/m 3,2 km/h (1 Bft) 97,87 %
05.06.2023 03:14 14,9 C 13,9 C 10,6 C 77 % 1021,5 hPa 0,0 l/m 0 min 0 min 0 W/m 3,2 km/h (1 Bft) 98,00 %
05.06.2023 03:16 14,9 C 13,9 C 10,6 C 77 % 1021,5 hPa 0,0 l/m 0 min 0 min 0 W/m 3,2 km/h (1 Bft) 93,62 %
05.06.2023 03:18 14,8 C 13,9 C 10,6 C 77 % 1021,5 hPa 0,0 l/m 0 min 0 min 0 W/m 12,9 km/h (3 Bft) 95,74 %
05.06.2023 03:20 14,8 C 13,9 C 10,6 C 78 % 1021,5 hPa 0,0 l/m 0 min 0 min 0 W/m 3,2 km/h (1 Bft) 97,83 %
05.06.2023 03:22 14,8 C 13,9 C 10,6 C 77 % 1021,5 hPa 0,0 l/m 0 min 0 min 0 W/m 3,2 km/h (1 Bft) 97,87 %
05.06.2023 03:24 14,7 C 13,9 C 10,6 C 78 % 1021,5 hPa 0,0 l/m 0 min 0 min 0 W/m 0,0 km/h (0 Bft) 97,87 %
05.06.2023 03:26 14,7 C 13,9 C 10,6 C 78 % 1021,5 hPa 0,0 l/m 0 min 0 min 0 W/m 6,4 km/h (2 Bft) 97,87 %
05.06.2023 03:28 14,7 C 13,3 C 10,6 C 78 % 1021,5 hPa 0,0 l/m 0 min 0 min 0 W/m 3,2 km/h (1 Bft) 76,60 %
05.06.2023 03:30 14,7 C 13,3 C 10,6 C 78 % 1021,5 hPa 0,0 l/m 0 min 0 min 0 W/m 6,4 km/h (2 Bft) 74,42 %
05.06.2023 03:32 14,6 C 13,3 C 10,6 C 78 % 1021,5 hPa 0,0 l/m 0 min 0 min 0 W/m 3,2 km/h (1 Bft) 97,83 %
05.06.2023 03:34 14,6 C 13,3 C 10,6 C 78 % 1021,4 hPa 0,0 l/m 0 min 0 min 0 W/m 0,0 km/h (0 Bft) 97,87 %
05.06.2023 03:36 14,6 C 13,3 C 10,6 C 78 % 1021,4 hPa 0,0 l/m 0 min 0 min 0 W/m 6,4 km/h (2 Bft) 100,00 %
05.06.2023 03:38 14,5 C 13,3 C 10,6 C 78 % 1021,4 hPa 0,0 l/m 0 min 0 min 0 W/m 3,2 km/h (1 Bft) 97,87 %
05.06.2023 03:40 14,5 C 13,3 C 10,0 C 78 % 1021,4 hPa 0,0 l/m 0 min 0 min 0 W/m 6,4 km/h (2 Bft) 97,87 %
05.06.2023 03:42 14,4 C 13,3 C 10,0 C 78 % 1021,4 hPa 0,0 l/m 0 min 0 min 0 W/m 3,2 km/h (1 Bft) 97,87 %
05.06.2023 03:44 14,4 C 13,3 C 10,0 C 78 % 1021,4 hPa 0,0 l/m 0 min 0 min 0 W/m 3,2 km/h (1 Bft) 97,87 %
05.06.2023 03:46 14,3 C 13,3 C 10,0 C 78 % 1021,4 hPa 0,0 l/m 0 min 0 min 0 W/m 9,7 km/h (2 Bft) 95,65 %
05.06.2023 03:48 14,3 C 13,3 C 10,0 C 78 % 1021,4 hPa 0,0 l/m 0 min 0 min 0 W/m 3,2 km/h (1 Bft) 97,87 %
05.06.2023 03:50 14,3 C 13,3 C 10,0 C 78 % 1021,3 hPa 0,0 l/m 0 min 0 min 0 W/m 3,2 km/h (1 Bft) 100,00 %
05.06.2023 03:52 14,3 C 13,3 C 10,0 C 78 % 1021,3 hPa 0,0 l/m 0 min 0 min 0 W/m 3,2 km/h (1 Bft) 100,00 %
05.06.2023 03:54 14,3 C 13,3 C 10,0 C 78 % 1021,3 hPa 0,0 l/m 0 min 0 min 0 W/m 3,2 km/h (1 Bft) 97,14 %
05.06.2023 03:56 14,3 C 13,3 C 10,0 C 79 % 1021,3 hPa 0,0 l/m 0 min 0 min 0 W/m 3,2 km/h (1 Bft) 98,31 %
05.06.2023 03:58 14,3 C 12,8 C 10,0 C 79 % 1021,3 hPa 0,0 l/m 0 min 0 min 0 W/m 3,2 km/h (1 Bft) 100,00 %
05.06.2023 04:00 14,3 C 12,8 C 10,0 C 79 % 1021,3 hPa 0,0 l/m 0 min 0 min 0 W/m 3,2 km/h (1 Bft) 97,87 %
05.06.2023 04:05 14,1 C 12,8 C 9,4 C 79 % 1021,2 hPa 0,0 l/m 0 min 0 min 0 W/m 3,2 km/h (1 Bft) 96,34 %
05.06.2023 04:06 14,1 C 12,8 C 9,4 C 79 % 1021,2 hPa 0,0 l/m 0 min 0 min 0 W/m 3,2 km/h (1 Bft) 95,83 %
05.06.2023 04:08 14,1 C 12,8 C 10,0 C 79 % 1021,2 hPa 0,0 l/m 0 min 0 min 0 W/m 6,4 km/h (2 Bft) 95,65 %
05.06.2023 04:10 14,1 C 12,8 C 9,4 C 79 % 1021,2 hPa 0,0 l/m 0 min 0 min 0 W/m 3,2 km/h (1 Bft) 97,92 %
05.06.2023 04:12 14,0 C 12,8 C 9,4 C 79 % 1021,2 hPa 0,0 l/m 0 min 0 min 0 W/m 3,2 km/h (1 Bft) 97,83 %
05.06.2023 04:14 13,9 C 12,8 C 9,4 C 79 % 1021,2 hPa 0,0 l/m 0 min 0 min 0 W/m 3,2 km/h (1 Bft) 97,87 %
05.06.2023 04:16 13,9 C 12,8 C 9,4 C 80 % 1021,2 hPa 0,0 l/m 0 min 0 min 0 W/m 6,4 km/h (2 Bft) 95,74 %
05.06.2023 04:18 13,9 C 12,8 C 9,4 C 80 % 1021,2 hPa 0,0 l/m 0 min 0 min 0 W/m 6,4 km/h (2 Bft) 97,87 %
05.06.2023 04:20 13,9 C 12,8 C 9,4 C 80 % 1021,3 hPa 0,0 l/m 0 min 0 min 0 W/m 6,4 km/h (2 Bft) 95,74 %
05.06.2023 04:22 13,8 C 12,8 C 9,4 C 80 % 1021,2 hPa 0,0 l/m 0 min 0 min 0 W/m 3,2 km/h (1 Bft) 95,74 %
05.06.2023 04:24 13,8 C 12,8 C 9,4 C 80 % 1021,2 hPa 0,0 l/m 0 min 0 min 0 W/m 3,2 km/h (1 Bft) 95,65 %
05.06.2023 04:26 13,8 C 12,8 C 9,4 C 80 % 1021,2 hPa 0,0 l/m 0 min 0 min 0 W/m 3,2 km/h (1 Bft) 95,74 %
05.06.2023 04:28 13,7 C 12,8 C 9,4 C 80 % 1021,2 hPa 0,0 l/m 0 min 0 min 0 W/m 12,9 km/h (3 Bft) 95,74 %
05.06.2023 04:30 13,7 C 12,8 C 9,4 C 80 % 1021,2 hPa 0,0 l/m 0 min 0 min 0 W/m 16,1 km/h (3 Bft) 95,74 %
05.06.2023 04:32 13,7 C 12,8 C 9,4 C 80 % 1021,1 hPa 0,0 l/m 0 min 0 min 0 W/m 6,4 km/h (2 Bft) 93,62 %
05.06.2023 04:34 13,7 C 12,8 C 9,4 C 80 % 1021,2 hPa 0,0 l/m 0 min 0 min 0 W/m 6,4 km/h (2 Bft) 93,62 %
05.06.2023 04:36 13,7 C 12,8 C 9,4 C 80 % 1021,1 hPa 0,0 l/m 0 min 0 min 0 W/m 3,2 km/h (1 Bft) 95,74 %
05.06.2023 04:38 13,6 C 12,8 C 9,4 C 80 % 1021,1 hPa 0,0 l/m 0 min 0 min 0 W/m 3,2 km/h (1 Bft) 95,65 %
05.06.2023 04:40 13,6 C 12,8 C 9,4 C 80 % 1021,1 hPa 0,0 l/m 0 min 0 min 0 W/m 12,9 km/h (3 Bft) 95,74 %
05.06.2023 04:42 13,6 C 12,8 C 9,4 C 80 % 1021,1 hPa 0,0 l/m 0 min 0 min 0 W/m 3,2 km/h (1 Bft) 95,74 %
05.06.2023 04:44 13,6 C 12,8 C 9,4 C 80 % 1021,1 hPa 0,0 l/m 0 min 0 min 0 W/m 3,2 km/h (1 Bft) 93,62 %
05.06.2023 04:46 13,6 C 12,8 C 9,4 C 81 % 1021,1 hPa 0,0 l/m 0 min 0 min 0 W/m 12,9 km/h (3 Bft) 100,00 %
05.06.2023 04:48 13,5 C 12,8 C 9,4 C 81 % 1021,1 hPa 0,0 l/m 0 min 0 min 0 W/m 3,2 km/h (1 Bft) 95,74 %
05.06.2023 04:50 13,5 C 12,8 C 9,4 C 81 % 1021,1 hPa 0,0 l/m 0 min 0 min 0 W/m 6,4 km/h (2 Bft) 95,65 %
05.06.2023 04:52 13,4 C 12,8 C 9,4 C 81 % 1021,0 hPa 0,0 l/m 0 min 0 min 0 W/m 6,4 km/h (2 Bft) 97,87 %
05.06.2023 04:54 13,4 C 12,2 C 9,4 C 81 % 1021,0 hPa 0,0 l/m 0 min 0 min 0 W/m 6,4 km/h (2 Bft) 97,14 %
05.06.2023 04:56 13,4 C 12,2 C 9,4 C 81 % 1021,0 hPa 0,0 l/m 0 min 0 min 0 W/m 6,4 km/h (2 Bft) 95,74 %
05.06.2023 04:58 13,4 C 12,2 C 9,4 C 81 % 1021,0 hPa 0,0 l/m 0 min 0 min 0 W/m 6,4 km/h (2 Bft) 97,87 %
05.06.2023 05:00 13,4 C 12,2 C 9,4 C 81 % 1021,0 hPa 0,0 l/m 0 min 0 min 0 W/m 3,2 km/h (1 Bft) 97,87 %
05.06.2023 05:02 13,3 C 12,2 C 9,4 C 81 % 1021,0 hPa 0,0 l/m 0 min 0 min 0 W/m 9,7 km/h (2 Bft) 100,00 %
05.06.2023 05:04 13,3 C 12,2 C 9,4 C 81 % 1021,0 hPa 0,0 l/m 0 min 0 min 0 W/m 12,9 km/h (3 Bft) 100,00 %
05.06.2023 05:06 13,3 C 12,2 C 9,4 C 81 % 1021,0 hPa 0,0 l/m 0 min 0 min 0 W/m 6,4 km/h (2 Bft) 98,28 %
05.06.2023 05:08 13,3 C 12,2 C 9,4 C 81 % 1021,1 hPa 0,0 l/m 0 min 0 min 0 W/m 12,9 km/h (3 Bft) 100,00 %
05.06.2023 05:10 13,3 C 12,2 C 8,9 C 81 % 1021,1 hPa 0,0 l/m 0 min 0 min 0 W/m 3,2 km/h (1 Bft) 100,00 %
05.06.2023 05:12 13,2 C 12,2 C 8,9 C 81 % 1021,1 hPa 0,0 l/m 0 min 0 min 0 W/m 6,4 km/h (2 Bft) 97,87 %
05.06.2023 05:14 13,2 C 12,2 C 8,9 C 81 % 1021,0 hPa 0,0 l/m 0 min 0 min 0 W/m 12,9 km/h (3 Bft) 97,87 %
05.06.2023 05:16 13,2 C 12,2 C 8,9 C 81 % 1021,0 hPa 0,0 l/m 0 min 0 min 0 W/m 6,4 km/h (2 Bft) 100,00 %
05.06.2023 05:18 13,2 C 12,2 C 8,9 C 81 % 1021,0 hPa 0,0 l/m 0 min 0 min 0 W/m 9,7 km/h (2 Bft) 100,00 %
05.06.2023 05:20 13,2 C 12,2 C 8,9 C 81 % 1021,0 hPa 0,0 l/m 0 min 0 min 0 W/m 6,4 km/h (2 Bft) 100,00 %
05.06.2023 05:22 13,1 C 12,2 C 8,9 C 81 % 1021,0 hPa 0,0 l/m 0 min 0 min 0 W/m 6,4 km/h (2 Bft) 100,00 %
05.06.2023 05:24 13,1 C 12,2 C 8,9 C 81 % 1021,1 hPa 0,0 l/m 0 min 0 min 0 W/m 12,9 km/h (3 Bft) 95,74 %
05.06.2023 05:26 13,1 C 12,2 C 8,9 C 82 % 1021,1 hPa 0,0 l/m 0 min 0 min 0 W/m 3,2 km/h (1 Bft) 97,87 %
05.06.2023 05:28 13,1 C 12,2 C 8,9 C 82 % 1021,0 hPa 0,0 l/m 0 min 0 min 2 W/m 3,2 km/h (1 Bft) 100,00 %
05.06.2023 05:30 13,1 C 12,2 C 8,9 C 82 % 1021,0 hPa 0,0 l/m 0 min 0 min 5 W/m 6,4 km/h (2 Bft) 97,87 %
05.06.2023 05:32 13,0 C 12,2 C 8,9 C 82 % 1021,1 hPa 0,0 l/m 0 min 0 min 5 W/m 6,4 km/h (2 Bft) 97,83 %
05.06.2023 05:34 13,0 C 12,2 C 8,9 C 82 % 1021,0 hPa 0,0 l/m 0 min 0 min 5 W/m 3,2 km/h (1 Bft) 97,87 %
05.06.2023 05:36 13,0 C 12,2 C 8,9 C 82 % 1021,1 hPa 0,0 l/m 0 min 0 min 7 W/m 6,4 km/h (2 Bft) 95,74 %
05.06.2023 05:38 13,0 C 12,2 C 8,9 C 82 % 1021,0 hPa 0,0 l/m 0 min 0 min 7 W/m 3,2 km/h (1 Bft) 97,87 %
05.06.2023 05:40 12,9 C 12,2 C 8,9 C 82 % 1021,0 hPa 0,0 l/m 0 min 0 min 8 W/m 6,4 km/h (2 Bft) 97,87 %
05.06.2023 05:42 12,9 C 12,2 C 8,9 C 82 % 1021,0 hPa 0,0 l/m 0 min 0 min 9 W/m 9,7 km/h (2 Bft) 97,87 %
05.06.2023 05:44 12,9 C 12,2 C 8,9 C 82 % 1021,0 hPa 0,0 l/m 0 min 0 min 9 W/m 3,2 km/h (1 Bft) 97,83 %
05.06.2023 05:46 12,9 C 12,2 C 8,9 C 82 % 1021,0 hPa 0,0 l/m 0 min 0 min 11 W/m 3,2 km/h (1 Bft) 97,87 %
05.06.2023 05:48 12,9 C 12,2 C 8,9 C 82 % 1021,0 hPa 0,0 l/m 0 min 0 min 11 W/m 3,2 km/h (1 Bft) 97,87 %
05.06.2023 05:50 12,8 C 12,2 C 8,9 C 82 % 1021,0 hPa 0,0 l/m 0 min 0 min 12 W/m 6,4 km/h (2 Bft) 95,74 %
05.06.2023 05:52 12,8 C 12,2 C 8,9 C 82 % 1021,0 hPa 0,0 l/m 0 min 0 min 12 W/m 9,7 km/h (2 Bft) 97,87 %
05.06.2023 05:54 12,8 C 12,2 C 8,9 C 82 % 1021,1 hPa 0,0 l/m 0 min 0 min 12 W/m 6,4 km/h (2 Bft) 97,87 %
05.06.2023 05:56 12,8 C 12,2 C 8,9 C 82 % 1021,1 hPa 0,0 l/m 0 min 0 min 14 W/m 3,2 km/h (1 Bft) 95,74 %
05.06.2023 05:58 12,8 C 12,2 C 8,9 C 82 % 1021,1 hPa 0,0 l/m 0 min 0 min 14 W/m 6,4 km/h (2 Bft) 95,65 %
05.06.2023 06:00 12,8 C 12,2 C 8,9 C 82 % 1021,1 hPa 0,0 l/m 0 min 0 min 16 W/m 3,2 km/h (1 Bft) 95,74 %
05.06.2023 06:02 12,8 C 12,2 C 8,9 C 82 % 1021,1 hPa 0,0 l/m 0 min 0 min 16 W/m 3,2 km/h (1 Bft) 93,62 %
05.06.2023 06:04 12,8 C 12,2 C 8,9 C 82 % 1021,1 hPa 0,0 l/m 0 min 0 min 17 W/m 3,2 km/h (1 Bft) 95,83 %
05.06.2023 06:07 12,8 C 12,2 C 8,9 C 82 % 1021,0 hPa 0,0 l/m 0 min 0 min 18 W/m 6,4 km/h (2 Bft) 95,83 %
05.06.2023 06:08 12,8 C 12,2 C 8,9 C 83 % 1021,0 hPa 0,0 l/m 0 min 0 min 18 W/m 6,4 km/h (2 Bft) 94,06 %
05.06.2023 06:12 12,7 C 12,2 C 8,9 C 83 % 1021,2 hPa 0,0 l/m 0 min 0 min 19 W/m 9,7 km/h (2 Bft) 97,96 %
05.06.2023 06:14 12,7 C 12,2 C 8,9 C 83 % 1021,1 hPa 0,0 l/m 0 min 0 min 20 W/m 6,4 km/h (2 Bft) 95,74 %
05.06.2023 06:16 12,7 C 12,2 C 8,9 C 83 % 1021,1 hPa 0,0 l/m 0 min 0 min 21 W/m 16,1 km/h (3 Bft) 97,87 %
05.06.2023 06:18 12,7 C 12,2 C 8,9 C 83 % 1021,1 hPa 0,0 l/m 0 min 0 min 21 W/m 3,2 km/h (1 Bft) 97,87 %
05.06.2023 06:20 12,7 C 12,2 C 8,9 C 83 % 1021,1 hPa 0,0 l/m 0 min 0 min 23 W/m 6,4 km/h (2 Bft) 97,87 %
05.06.2023 06:22 12,7 C 12,2 C 8,9 C 83 % 1021,1 hPa 0,0 l/m 0 min 0 min 23 W/m 3,2 km/h (1 Bft) 97,87 %
05.06.2023 06:24 12,7 C 12,2 C 8,9 C 83 % 1021,1 hPa 0,0 l/m 0 min 0 min 24 W/m 3,2 km/h (1 Bft) 97,83 %
05.06.2023 06:26 12,7 C 12,2 C 8,9 C 83 % 1021,1 hPa 0,0 l/m 0 min 0 min 25 W/m 0,0 km/h (0 Bft) 97,87 %
05.06.2023 06:28 12,7 C 12,2 C 8,9 C 83 % 1021,1 hPa 0,0 l/m 0 min 0 min 25 W/m 3,2 km/h (1 Bft) 97,87 %
05.06.2023 06:30 12,7 C 12,2 C 8,9 C 83 % 1021,1 hPa 0,0 l/m 0 min 0 min 26 W/m 6,4 km/h (2 Bft) 100,00 %
05.06.2023 06:32 12,7 C 12,2 C 8,9 C 83 % 1021,1 hPa 0,0 l/m 0 min 0 min 26 W/m 9,7 km/h (2 Bft) 100,00 %
05.06.2023 06:34 12,7 C 12,2 C 8,9 C 83 % 1021,1 hPa 0,0 l/m 0 min 0 min 27 W/m 6,4 km/h (2 Bft) 100,00 %
05.06.2023 06:36 12,7 C 12,2 C 8,9 C 83 % 1021,1 hPa 0,0 l/m 0 min 0 min 28 W/m 3,2 km/h (1 Bft) 100,00 %
05.06.2023 06:38 12,7 C 12,2 C 8,9 C 83 % 1021,1 hPa 0,0 l/m 0 min 0 min 29 W/m 3,2 km/h (1 Bft) 100,00 %
05.06.2023 06:40 12,7 C 12,2 C 8,9 C 83 % 1021,1 hPa 0,0 l/m 0 min 0 min 30 W/m 3,2 km/h (1 Bft) 100,00 %
05.06.2023 06:42 12,7 C 12,2 C 8,9 C 83 % 1021,1 hPa 0,0 l/m 0 min 0 min 30 W/m 6,4 km/h (2 Bft) 100,00 %
05.06.2023 06:44 12,7 C 12,2 C 8,9 C 83 % 1021,1 hPa 0,0 l/m 0 min 0 min 32 W/m 3,2 km/h (1 Bft) 100,00 %
05.06.2023 06:46 12,7 C 12,2 C 8,9 C 83 % 1021,1 hPa 0,0 l/m 0 min 0 min 32 W/m 6,4 km/h (2 Bft) 100,00 %
05.06.2023 06:48 12,7 C 12,2 C 8,9 C 83 % 1021,1 hPa 0,0 l/m 0 min 0 min 32 W/m 6,4 km/h (2 Bft) 100,00 %
05.06.2023 06:50 12,7 C 12,2 C 8,9 C 83 % 1021,1 hPa 0,0 l/m 0 min 0 min 33 W/m 12,9 km/h (3 Bft) 100,00 %
05.06.2023 06:52 12,7 C 12,2 C 8,9 C 83 % 1021,1 hPa 0,0 l/m 0 min 0 min 33 W/m 12,9 km/h (3 Bft) 100,00 %
05.06.2023 06:54 12,8 C 12,2 C 8,9 C 83 % 1021,2 hPa 0,0 l/m 0 min 0 min 33 W/m 3,2 km/h (1 Bft) 100,00 %
05.06.2023 06:56 12,8 C 12,2 C 8,9 C 83 % 1021,1 hPa 0,0 l/m 0 min 0 min 35 W/m 0,0 km/h (0 Bft) 97,87 %
05.06.2023 06:58 12,8 C 12,2 C 8,9 C 83 % 1021,1 hPa 0,0 l/m 0 min 0 min 35 W/m 3,2 km/h (1 Bft) 97,87 %
05.06.2023 07:00 12,8 C 12,2 C 8,9 C 83 % 1021,1 hPa 0,0 l/m 0 min 0 min 37 W/m 9,7 km/h (2 Bft) 100,00 %
05.06.2023 07:02 12,8 C 12,2 C 8,9 C 83 % 1021,2 hPa 0,0 l/m 0 min 0 min 37 W/m 6,4 km/h (2 Bft) 100,00 %
05.06.2023 07:04 12,8 C 12,2 C 8,9 C 83 % 1021,2 hPa 0,0 l/m 0 min 0 min 38 W/m 12,9 km/h (3 Bft) 97,92 %
05.06.2023 07:06 12,9 C 12,2 C 8,9 C 83 % 1021,2 hPa 0,0 l/m 0 min 0 min 39 W/m 6,4 km/h (2 Bft) 100,00 %
05.06.2023 07:08 12,9 C 12,2 C 8,9 C 83 % 1021,2 hPa 0,0 l/m 0 min 0 min 39 W/m 9,7 km/h (2 Bft) 100,00 %
05.06.2023 07:10 12,9 C 12,2 C 8,9 C 83 % 1021,2 hPa 0,0 l/m 0 min 0 min 40 W/m 6,4 km/h (2 Bft) 97,87 %
05.06.2023 07:12 12,9 C 12,2 C 8,9 C 83 % 1021,2 hPa 0,0 l/m 0 min 0 min 40 W/m 12,9 km/h (3 Bft) 100,00 %
05.06.2023 07:14 12,9 C 12,2 C 8,9 C 82 % 1021,2 hPa 0,0 l/m 0 min 0 min 42 W/m 6,4 km/h (2 Bft) 100,00 %
05.06.2023 07:16 12,9 C 12,8 C 8,9 C 83 % 1021,2 hPa 0,0 l/m 0 min 0 min 42 W/m 6,4 km/h (2 Bft) 100,00 %
05.06.2023 07:18 12,9 C 12,8 C 8,9 C 83 % 1021,2 hPa 0,0 l/m 0 min 0 min 44 W/m 6,4 km/h (2 Bft) 97,87 %
05.06.2023 07:20 13,0 C 12,8 C 8,9 C 82 % 1021,2 hPa 0,0 l/m 0 min 0 min 44 W/m 6,4 km/h (2 Bft) 100,00 %
05.06.2023 07:22 13,1 C 12,8 C 9,4 C 82 % 1021,2 hPa 0,0 l/m 0 min 0 min 46 W/m 6,4 km/h (2 Bft) 100,00 %
05.06.2023 07:24 13,1 C 12,8 C 9,4 C 82 % 1021,2 hPa 0,0 l/m 0 min 0 min 46 W/m 3,2 km/h (1 Bft) 97,87 %
05.06.2023 07:26 13,1 C 12,8 C 9,4 C 82 % 1021,2 hPa 0,0 l/m 0 min 0 min 47 W/m 16,1 km/h (3 Bft) 97,87 %
05.06.2023 07:28 13,1 C 12,8 C 9,4 C 82 % 1021,1 hPa 0,0 l/m 0 min 0 min 48 W/m 6,4 km/h (2 Bft) 97,83 %
05.06.2023 07:30 13,2 C 12,8 C 9,4 C 82 % 1021,2 hPa 0,0 l/m 0 min 0 min 49 W/m 6,4 km/h (2 Bft) 95,74 %
05.06.2023 07:32 13,2 C 12,8 C 9,4 C 82 % 1021,2 hPa 0,0 l/m 0 min 0 min 50 W/m 9,7 km/h (2 Bft) 95,74 %
05.06.2023 07:34 13,2 C 12,8 C 9,4 C 82 % 1021,2 hPa 0,0 l/m 0 min 0 min 51 W/m 6,4 km/h (2 Bft) 95,74 %
05.06.2023 07:36 13,2 C 12,8 C 9,4 C 82 % 1021,2 hPa 0,0 l/m 0 min 0 min 52 W/m 9,7 km/h (2 Bft) 93,62 %
05.06.2023 07:38 13,3 C 12,8 C 9,4 C 82 % 1021,3 hPa 0,0 l/m 0 min 0 min 53 W/m 9,7 km/h (2 Bft) 97,87 %
05.06.2023 07:40 13,3 C 12,8 C 9,4 C 82 % 1021,2 hPa 0,0 l/m 0 min 0 min 111 W/m 9,7 km/h (2 Bft) 97,87 %
05.06.2023 07:42 13,3 C 13,3 C 9,4 C 82 % 1021,2 hPa 0,0 l/m 2 min 0 min 226 W/m 6,4 km/h (2 Bft) 95,65 %
05.06.2023 07:44 13,4 C 13,3 C 9,4 C 82 % 1021,2 hPa 0,0 l/m 2 min 0 min 244 W/m 6,4 km/h (2 Bft) 95,74 %
05.06.2023 07:46 13,4 C 13,3 C 9,4 C 82 % 1021,2 hPa 0,0 l/m 2 min 0 min 253 W/m 3,2 km/h (1 Bft) 93,62 %
05.06.2023 07:48 13,5 C 13,3 C 9,4 C 82 % 1021,2 hPa 0,0 l/m 2 min 0 min 247 W/m 16,1 km/h (3 Bft) 91,49 %
05.06.2023 07:50 13,6 C 13,3 C 10,0 C 82 % 1021,2 hPa 0,0 l/m 0 min 0 min 159 W/m 6,4 km/h (2 Bft) 93,62 %
05.06.2023 07:52 13,6 C 13,3 C 10,0 C 82 % 1021,2 hPa 0,0 l/m 0 min 0 min 88 W/m 6,4 km/h (2 Bft) 95,74 %
05.06.2023 07:54 13,7 C 13,3 C 10,0 C 81 % 1021,2 hPa 0,0 l/m 2 min 0 min 223 W/m 9,7 km/h (2 Bft) 93,48 %
05.06.2023 07:56 13,7 C 13,9 C 10,0 C 81 % 1021,3 hPa 0,0 l/m 2 min 0 min 282 W/m 6,4 km/h (2 Bft) 95,74 %
05.06.2023 07:58 13,8 C 13,9 C 10,0 C 81 % 1021,3 hPa 0,0 l/m 2 min 0 min 282 W/m 12,9 km/h (3 Bft) 93,62 %
05.06.2023 08:00 13,9 C 14,4 C 10,0 C 81 % 1021,3 hPa 0,0 l/m 2 min 0 min 294 W/m 6,4 km/h (2 Bft) 93,62 %
05.06.2023 08:02 13,9 C 15,0 C 10,0 C 81 % 1021,3 hPa 0,0 l/m 2 min 0 min 300 W/m 12,9 km/h (3 Bft) 95,74 %
05.06.2023 08:04 14,1 C 15,6 C 10,0 C 81 % 1021,3 hPa 0,0 l/m 2 min 0 min 306 W/m 9,7 km/h (2 Bft) 91,84 %
05.06.2023 08:06 14,2 C 16,1 C 10,0 C 80 % 1021,2 hPa 0,0 l/m 2 min 0 min 306 W/m 16,1 km/h (3 Bft) 95,65 %
05.06.2023 08:08 14,3 C 16,7 C 10,0 C 80 % 1021,3 hPa 0,0 l/m 2 min 0 min 268 W/m 6,4 km/h (2 Bft) 93,62 %
05.06.2023 08:10 14,3 C 17,2 C 10,6 C 80 % 1021,3 hPa 0,0 l/m 2 min 0 min 308 W/m 3,2 km/h (1 Bft) 93,62 %
05.06.2023 08:12 14,5 C 17,8 C 10,6 C 80 % 1021,3 hPa 0,0 l/m 2 min 0 min 328 W/m 6,4 km/h (2 Bft) 95,74 %
05.06.2023 08:14 14,7 C 18,3 C 10,6 C 79 % 1021,2 hPa 0,0 l/m 2 min 0 min 332 W/m 6,4 km/h (2 Bft) 95,74 %
05.06.2023 08:16 14,8 C 18,3 C 10,6 C 79 % 1021,3 hPa 0,0 l/m 2 min 0 min 340 W/m 6,4 km/h (2 Bft) 93,62 %
05.06.2023 08:18 14,9 C 18,3 C 11,1 C 78 % 1021,3 hPa 0,0 l/m 2 min 0 min 346 W/m 12,9 km/h (3 Bft) 93,62 %
05.06.2023 08:20 15,0 C 18,3 C 11,1 C 77 % 1021,3 hPa 0,0 l/m 2 min 0 min 352 W/m 16,1 km/h (3 Bft) 95,65 %
05.06.2023 08:22 15,2 C 18,3 C 11,1 C 78 % 1021,3 hPa 0,0 l/m 2 min 0 min 348 W/m 6,4 km/h (2 Bft) 97,87 %
05.06.2023 08:24 15,3 C 18,9 C 11,7 C 77 % 1021,3 hPa 0,0 l/m 2 min 0 min 357 W/m 12,9 km/h (3 Bft) 97,87 %
05.06.2023 08:26 15,5 C 18,9 C 11,7 C 76 % 1021,3 hPa 0,0 l/m 2 min 0 min 368 W/m 12,9 km/h (3 Bft) 97,87 %
05.06.2023 08:28 15,7 C 19,4 C 12,2 C 76 % 1021,3 hPa 0,0 l/m 2 min 0 min 372 W/m 3,2 km/h (1 Bft) 97,87 %
05.06.2023 08:30 15,8 C 20,0 C 12,2 C 75 % 1021,3 hPa 0,0 l/m 2 min 0 min 379 W/m 12,9 km/h (3 Bft) 97,87 %
05.06.2023 08:32 15,9 C 20,0 C 12,8 C 75 % 1021,3 hPa 0,0 l/m 2 min 0 min 385 W/m 6,4 km/h (2 Bft) 97,83 %
05.06.2023 08:34 16,1 C 20,0 C 12,8 C 75 % 1021,3 hPa 0,0 l/m 2 min 0 min 390 W/m 6,4 km/h (2 Bft) 97,87 %
05.06.2023 08:36 16,2 C 20,0 C 12,8 C 73 % 1021,3 hPa 0,0 l/m 2 min 0 min 397 W/m 12,9 km/h (3 Bft) 97,87 %
05.06.2023 08:38 16,2 C 20,0 C 12,8 C 73 % 1021,2 hPa 0,0 l/m 2 min 0 min 401 W/m 9,7 km/h (2 Bft) 95,74 %
05.06.2023 08:40 16,3 C 20,6 C 13,3 C 74 % 1021,3 hPa 0,0 l/m 2 min 0 min 406 W/m 12,9 km/h (3 Bft) 97,87 %
05.06.2023 08:42 16,3 C 21,1 C 13,3 C 73 % 1021,3 hPa 0,0 l/m 2 min 0 min 412 W/m 6,4 km/h (2 Bft) 97,87 %
05.06.2023 08:44 16,4 C 20,6 C 13,9 C 73 % 1021,3 hPa 0,0 l/m 2 min 0 min 417 W/m 9,7 km/h (2 Bft) 97,87 %
05.06.2023 08:46 16,4 C 21,1 C 13,9 C 73 % 1021,3 hPa 0,0 l/m 2 min 0 min 424 W/m 19,3 km/h (3 Bft) 97,83 %
05.06.2023 08:48 16,6 C 21,7 C 13,9 C 73 % 1021,3 hPa 0,0 l/m 2 min 0 min 430 W/m 9,7 km/h (2 Bft) 95,74 %
05.06.2023 08:50 16,6 C 22,2 C 13,9 C 73 % 1021,3 hPa 0,0 l/m 2 min 0 min 435 W/m 6,4 km/h (2 Bft) 97,87 %
05.06.2023 08:52 16,8 C 22,8 C 14,4 C 73 % 1021,3 hPa 0,0 l/m 2 min 0 min 439 W/m 3,2 km/h (1 Bft) 97,87 %
05.06.2023 08:54 17,0 C 22,8 C 15,0 C 72 % 1021,4 hPa 0,0 l/m 2 min 0 min 445 W/m 12,9 km/h (3 Bft) 97,87 %
05.06.2023 08:56 17,1 C 22,8 C 15,0 C 72 % 1021,4 hPa 0,0 l/m 2 min 0 min 451 W/m 6,4 km/h (2 Bft) 97,87 %
05.06.2023 08:58 17,3 C 22,8 C 15,6 C 71 % 1021,4 hPa 0,0 l/m 2 min 0 min 456 W/m 3,2 km/h (1 Bft) 97,83 %
05.06.2023 09:00 17,4 C 23,3 C 15,6 C 71 % 1021,4 hPa 0,0 l/m 2 min 0 min 460 W/m 9,7 km/h (2 Bft) 97,87 %
05.06.2023 09:02 17,4 C 22,8 C 15,6 C 70 % 1021,4 hPa 0,0 l/m 2 min 0 min 467 W/m 12,9 km/h (3 Bft) 97,87 %
05.06.2023 09:04 17,4 C 23,3 C 15,6 C 70 % 1021,4 hPa 0,0 l/m 2 min 0 min 473 W/m 6,4 km/h (2 Bft) 97,92 %
05.06.2023 09:06 17,6 C 23,3 C 15,6 C 70 % 1021,4 hPa 0,0 l/m 2 min 0 min 478 W/m 9,7 km/h (2 Bft) 93,62 %
05.06.2023 09:08 17,7 C 22,8 C 15,6 C 70 % 1021,4 hPa 0,0 l/m 2 min 0 min 483 W/m 12,9 km/h (3 Bft) 97,87 %
05.06.2023 09:10 17,6 C 22,8 C 15,6 C 69 % 1021,4 hPa 0,0 l/m 2 min 0 min 487 W/m 12,9 km/h (3 Bft) 97,83 %
05.06.2023 09:12 17,7 C 22,8 C 16,1 C 69 % 1021,3 hPa 0,0 l/m 2 min 0 min 493 W/m 9,7 km/h (2 Bft) 97,87 %
05.06.2023 09:14 17,8 C 23,3 C 16,1 C 70 % 1021,4 hPa 0,0 l/m 2 min 0 min 498 W/m 6,4 km/h (2 Bft) 97,87 %
05.06.2023 09:16 17,9 C 23,3 C 16,1 C 69 % 1021,4 hPa 0,0 l/m 2 min 0 min 504 W/m 6,4 km/h (2 Bft) 97,87 %
05.06.2023 09:18 17,9 C 22,8 C 16,1 C 69 % 1021,4 hPa 0,0 l/m 2 min 0 min 509 W/m 6,4 km/h (2 Bft) 95,74 %
05.06.2023 09:20 17,9 C 22,8 C 16,7 C 69 % 1021,4 hPa 0,0 l/m 2 min 0 min 515 W/m 3,2 km/h (1 Bft) 97,87 %
05.06.2023 09:22 18,1 C 23,3 C 16,7 C 69 % 1021,4 hPa 0,0 l/m 2 min 0 min 520 W/m 9,7 km/h (2 Bft) 97,87 %
05.06.2023 09:24 18,2 C 23,9 C 16,7 C 69 % 1021,4 hPa 0,0 l/m 2 min 0 min 525 W/m 6,4 km/h (2 Bft) 97,83 %
05.06.2023 09:26 18,3 C 23,9 C 16,7 C 68 % 1021,4 hPa 0,0 l/m 2 min 0 min 532 W/m 6,4 km/h (2 Bft) 97,87 %
05.06.2023 09:28 18,4 C 23,9 C 17,2 C 68 % 1021,4 hPa 0,0 l/m 2 min 0 min 537 W/m 6,4 km/h (2 Bft) 97,87 %
05.06.2023 09:30 18,5 C 23,9 C 17,2 C 67 % 1021,4 hPa 0,0 l/m 2 min 0 min 543 W/m 3,2 km/h (1 Bft) 97,87 %
05.06.2023 09:32 18,6 C 23,9 C 17,8 C 68 % 1021,4 hPa 0,0 l/m 2 min 0 min 548 W/m 9,7 km/h (2 Bft) 97,87 %
05.06.2023 09:34 18,7 C 23,9 C 17,2 C 67 % 1021,4 hPa 0,0 l/m 2 min 0 min 554 W/m 6,4 km/h (2 Bft) 97,87 %
05.06.2023 09:36 18,8 C 23,3 C 17,8 C 67 % 1021,4 hPa 0,0 l/m 2 min 0 min 558 W/m 6,4 km/h (2 Bft) 95,65 %
05.06.2023 09:38 18,9 C 23,3 C 18,3 C 66 % 1021,4 hPa 0,0 l/m 2 min 0 min 564 W/m 6,4 km/h (2 Bft) 97,87 %
05.06.2023 09:40 18,9 C 23,3 C 18,3 C 66 % 1021,4 hPa 0,0 l/m 2 min 0 min 569 W/m 9,7 km/h (2 Bft) 97,22 %
05.06.2023 09:42 18,9 C 22,8 C 18,3 C 66 % 1021,4 hPa 0,0 l/m 2 min 0 min 574 W/m 12,9 km/h (3 Bft) 100,00 %
05.06.2023 09:44 18,9 C 22,8 C 18,3 C 65 % 1021,4 hPa 0,0 l/m 2 min 0 min 581 W/m 3,2 km/h (1 Bft) 97,87 %
05.06.2023 09:46 18,9 C 23,3 C 18,3 C 66 % 1021,4 hPa 0,0 l/m 2 min 0 min 585 W/m 6,4 km/h (2 Bft) 95,74 %
05.06.2023 09:48 19,1 C 23,9 C 17,8 C 66 % 1021,4 hPa 0,0 l/m 2 min 0 min 589 W/m 6,4 km/h (2 Bft) 97,87 %
05.06.2023 09:50 19,2 C 23,9 C 18,3 C 66 % 1021,4 hPa 0,0 l/m 2 min 0 min 595 W/m 12,9 km/h (3 Bft) 95,74 %
05.06.2023 09:52 19,4 C 23,9 C 18,9 C 65 % 1021,3 hPa 0,0 l/m 2 min 0 min 599 W/m 6,4 km/h (2 Bft) 95,65 %
05.06.2023 09:54 19,4 C 23,9 C 18,9 C 64 % 1021,4 hPa 0,0 l/m 2 min 0 min 604 W/m 6,4 km/h (2 Bft) 95,74 %
05.06.2023 09:56 19,6 C 23,9 C 18,9 C 63 % 1021,3 hPa 0,0 l/m 2 min 0 min 608 W/m 6,4 km/h (2 Bft) 94,29 %
05.06.2023 09:58 19,6 C 23,9 C 18,9 C 64 % 1021,3 hPa 0,0 l/m 2 min 0 min 614 W/m 12,9 km/h (3 Bft) 91,53 %
05.06.2023 10:00 19,7 C 23,9 C 18,9 C 64 % 1021,3 hPa 0,0 l/m 2 min 0 min 618 W/m 6,4 km/h (2 Bft) 93,62 %
05.06.2023 10:02 19,7 C 23,3 C 18,9 C 62 % 1021,3 hPa 0,0 l/m 2 min 0 min 624 W/m 16,1 km/h (3 Bft) 93,62 %
05.06.2023 10:04 19,4 C 22,8 C 18,9 C 64 % 1021,3 hPa 0,0 l/m 2 min 0 min 628 W/m 9,7 km/h (2 Bft) 94,59 %
05.06.2023 10:06 19,4 C 23,3 C 18,9 C 65 % 1021,3 hPa 0,0 l/m 2 min 0 min 633 W/m 6,4 km/h (2 Bft) 94,83 %
05.06.2023 10:08 19,4 C 23,3 C 20,0 C 65 % 1021,4 hPa 0,0 l/m 2 min 0 min 638 W/m 6,4 km/h (2 Bft) 93,62 %
05.06.2023 10:10 19,6 C 23,9 C 20,0 C 64 % 1021,3 hPa 0,0 l/m 2 min 0 min 643 W/m 9,7 km/h (2 Bft) 97,14 %
05.06.2023 10:12 19,6 C 22,8 C 20,0 C 63 % 1021,3 hPa 0,0 l/m 2 min 0 min 646 W/m 12,9 km/h (3 Bft) 93,62 %
05.06.2023 10:14 19,6 C 23,3 C 20,0 C 64 % 1021,3 hPa 0,0 l/m 2 min 0 min 650 W/m 6,4 km/h (2 Bft) 95,74 %
05.06.2023 10:16 19,7 C 23,3 C 20,0 C 63 % 1021,3 hPa 0,0 l/m 2 min 0 min 656 W/m 12,9 km/h (3 Bft) 95,74 %
05.06.2023 10:18 19,8 C 23,3 C 19,4 C 63 % 1021,3 hPa 0,0 l/m 2 min 0 min 658 W/m 12,9 km/h (3 Bft) 95,74 %
05.06.2023 10:20 19,9 C 23,3 C 20,0 C 64 % 1021,2 hPa 0,0 l/m 2 min 0 min 666 W/m 6,4 km/h (2 Bft) 93,48 %
05.06.2023 10:22 20,1 C 23,9 C 20,0 C 63 % 1021,3 hPa 0,0 l/m 2 min 0 min 670 W/m 12,9 km/h (3 Bft) 97,87 %
05.06.2023 10:24 20,2 C 23,9 C 20,0 C 62 % 1021,3 hPa 0,0 l/m 2 min 0 min 675 W/m 6,4 km/h (2 Bft) 93,62 %
05.06.2023 10:26 20,3 C 22,8 C 20,6 C 61 % 1021,3 hPa 0,0 l/m 2 min 0 min 680 W/m 9,7 km/h (2 Bft) 97,87 %
05.06.2023 10:28 20,2 C 21,7 C 20,6 C 62 % 1021,3 hPa 0,0 l/m 2 min 0 min 684 W/m 16,1 km/h (3 Bft) 97,87 %
05.06.2023 10:30 20,2 C 21,7 C 20,0 C 61 % 1021,3 hPa 0,0 l/m 2 min 0 min 686 W/m 12,9 km/h (3 Bft) 98,18 %
05.06.2023 10:32 20,2 C 21,7 C 20,0 C 63 % 1021,2 hPa 0,0 l/m 2 min 0 min 690 W/m 19,3 km/h (3 Bft) 97,87 %
05.06.2023 10:34 20,3 C 22,2 C 20,0 C 63 % 1021,2 hPa 0,0 l/m 2 min 0 min 696 W/m 9,7 km/h (2 Bft) 97,87 %
05.06.2023 10:36 20,3 C 22,2 C 20,6 C 62 % 1021,2 hPa 0,0 l/m 2 min 0 min 701 W/m 12,9 km/h (3 Bft) 97,87 %
05.06.2023 10:38 20,3 C 21,7 C 20,0 C 62 % 1021,2 hPa 0,0 l/m 2 min 0 min 702 W/m 6,4 km/h (2 Bft) 97,87 %
05.06.2023 10:40 20,2 C 21,7 C 20,0 C 62 % 1021,2 hPa 0,0 l/m 2 min 0 min 706 W/m 16,1 km/h (3 Bft) 100,00 %
05.06.2023 10:42 20,3 C 21,7 C 20,0 C 63 % 1021,2 hPa 0,0 l/m 2 min 0 min 713 W/m 9,7 km/h (2 Bft) 97,83 %
05.06.2023 10:44 20,4 C 22,2 C 20,0 C 63 % 1021,2 hPa 0,0 l/m 2 min 0 min 716 W/m 6,4 km/h (2 Bft) 100,00 %
05.06.2023 10:46 20,5 C 22,2 C 19,4 C 63 % 1021,2 hPa 0,0 l/m 2 min 0 min 720 W/m 9,7 km/h (2 Bft) 100,00 %
05.06.2023 10:48 20,6 C 22,2 C 19,4 C 62 % 1021,2 hPa 0,0 l/m 2 min 0 min 725 W/m 9,7 km/h (2 Bft) 100,00 %
05.06.2023 10:50 20,6 C 22,2 C 19,4 C 62 % 1021,1 hPa 0,0 l/m 2 min 0 min 729 W/m 9,7 km/h (2 Bft) 100,00 %
05.06.2023 10:52 20,7 C 22,8 C 19,4 C 63 % 1021,1 hPa 0,0 l/m 2 min 0 min 733 W/m 12,9 km/h (3 Bft) 100,00 %
05.06.2023 10:54 20,7 C 22,2 C 19,4 C 62 % 1021,1 hPa 0,0 l/m 2 min 0 min 736 W/m 12,9 km/h (3 Bft) 100,00 %
05.06.2023 10:56 20,7 C 22,2 C 18,9 C 61 % 1021,1 hPa 0,0 l/m 2 min 0 min 737 W/m 6,4 km/h (2 Bft) 100,00 %
05.06.2023 10:58 20,7 C 22,8 C 18,9 C 62 % 1021,1 hPa 0,0 l/m 2 min 0 min 741 W/m 16,1 km/h (3 Bft) 100,00 %
05.06.2023 11:00 20,7 C 23,3 C 18,3 C 61 % 1021,1 hPa 0,0 l/m 2 min 0 min 745 W/m 16,1 km/h (3 Bft) 100,00 %
05.06.2023 11:02 20,8 C 23,3 C 18,3 C 62 % 1021,1 hPa 0,0 l/m 2 min 0 min 750 W/m 19,3 km/h (3 Bft) 100,00 %
05.06.2023 11:04 21,0 C 23,9 C 18,3 C 62 % 1021,1 hPa 0,0 l/m 2 min 0 min 755 W/m 6,4 km/h (2 Bft) 100,00 %
05.06.2023 11:06 21,2 C 24,4 C 18,9 C 62 % 1021,1 hPa 0,0 l/m 2 min 0 min 758 W/m 9,7 km/h (2 Bft) 98,28 %
05.06.2023 11:08 21,3 C 23,9 C 18,9 C 61 % 1021,1 hPa 0,0 l/m 2 min 0 min 762 W/m 9,7 km/h (2 Bft) 100,00 %
05.06.2023 11:10 21,3 C 23,9 C 19,4 C 61 % 1021,1 hPa 0,0 l/m 2 min 0 min 766 W/m 6,4 km/h (2 Bft) 97,83 %
05.06.2023 11:12 21,3 C 23,9 C 20,0 C 61 % 1021,1 hPa 0,0 l/m 2 min 0 min 771 W/m 16,1 km/h (3 Bft) 100,00 %
05.06.2023 11:14 21,4 C 23,9 C 20,0 C 61 % 1021,1 hPa 0,0 l/m 2 min 0 min 775 W/m 9,7 km/h (2 Bft) 100,00 %
05.06.2023 11:16 21,4 C 23,9 C 19,4 C 59 % 1021,0 hPa 0,0 l/m 2 min 0 min 779 W/m 16,1 km/h (3 Bft) 100,00 %
05.06.2023 11:18 21,5 C 24,4 C 20,0 C 62 % 1021,0 hPa 0,0 l/m 2 min 0 min 780 W/m 16,1 km/h (3 Bft) 97,87 %
05.06.2023 11:20 21,6 C 23,9 C 20,0 C 60 % 1021,1 hPa 0,0 l/m 2 min 0 min 783 W/m 12,9 km/h (3 Bft) 100,00 %
05.06.2023 11:22 21,6 C 24,4 C 20,6 C 60 % 1021,0 hPa 0,0 l/m 2 min 0 min 787 W/m 6,4 km/h (2 Bft) 97,87 %
05.06.2023 11:24 21,7 C 24,4 C 20,0 C 59 % 1021,0 hPa 0,0 l/m 2 min 0 min 789 W/m 12,9 km/h (3 Bft) 100,00 %
05.06.2023 11:26 21,6 C 23,3 C 20,0 C 59 % 1021,0 hPa 0,0 l/m 2 min 0 min 793 W/m 16,1 km/h (3 Bft) 97,87 %
05.06.2023 11:28 21,5 C 24,4 C 20,0 C 61 % 1020,9 hPa 0,0 l/m 2 min 0 min 797 W/m 12,9 km/h (3 Bft) 100,00 %
05.06.2023 11:30 21,6 C 25,0 C 21,7 C 60 % 1020,9 hPa 0,0 l/m 2 min 0 min 797 W/m 9,7 km/h (2 Bft) 100,00 %
05.06.2023 11:32 21,7 C 25,0 C 22,2 C 59 % 1020,9 hPa 0,0 l/m 2 min 0 min 805 W/m 6,4 km/h (2 Bft) 100,00 %
05.06.2023 11:34 21,7 C 24,4 C 22,8 C 59 % 1020,9 hPa 0,0 l/m 2 min 0 min 821 W/m 9,7 km/h (2 Bft) 100,00 %
05.06.2023 11:36 21,8 C 25,0 C 21,7 C 58 % 1020,9 hPa 0,0 l/m 2 min 0 min 811 W/m 16,1 km/h (3 Bft) 100,00 %
05.06.2023 11:38 21,9 C 25,6 C 21,1 C 59 % 1020,8 hPa 0,0 l/m 2 min 0 min 814 W/m 19,3 km/h (3 Bft) 100,00 %
05.06.2023 11:40 21,9 C 26,1 C 21,7 C 59 % 1020,8 hPa 0,0 l/m 2 min 0 min 817 W/m 16,1 km/h (3 Bft) 100,00 %
05.06.2023 11:42 22,1 C 26,1 C 22,2 C 57 % 1020,8 hPa 0,0 l/m 2 min 0 min 821 W/m 9,7 km/h (2 Bft) 100,00 %
05.06.2023 11:44 22,2 C 26,1 C 22,8 C 58 % 1020,8 hPa 0,0 l/m 2 min 0 min 829 W/m 12,9 km/h (3 Bft) 100,00 %
05.06.2023 11:46 22,2 C 26,1 C 23,3 C 59 % 1020,9 hPa 0,0 l/m 2 min 0 min 828 W/m 9,7 km/h (2 Bft) 100,00 %
05.06.2023 11:48 22,3 C 26,1 C 23,3 C 59 % 1020,9 hPa 0,0 l/m 2 min 0 min 830 W/m 9,7 km/h (2 Bft) 97,87 %
05.06.2023 11:50 22,4 C 26,7 C 22,8 C 58 % 1020,8 hPa 0,0 l/m 2 min 0 min 832 W/m 9,7 km/h (2 Bft) 100,00 %
05.06.2023 11:52 22,4 C 26,1 C 23,3 C 58 % 1020,8 hPa 0,0 l/m 2 min 0 min 835 W/m 16,1 km/h (3 Bft) 100,00 %
05.06.2023 11:54 22,4 C 26,1 C 22,8 C 58 % 1020,8 hPa 0,0 l/m 2 min 0 min 838 W/m 16,1 km/h (3 Bft) 97,87 %
05.06.2023 11:56 22,4 C 26,1 C 22,2 C 57 % 1020,8 hPa 0,0 l/m 2 min 0 min 841 W/m 16,1 km/h (3 Bft) 97,87 %
05.06.2023 12:03 22,6 C 26,7 C 21,7 C 58 % 1020,7 hPa 0,0 l/m 5 min 0 min 846 W/m 6,4 km/h (2 Bft) 100,00 %
05.06.2023 12:04 22,6 C 26,7 C 21,7 C 57 % 1020,7 hPa 0,0 l/m 1 min 0 min 851 W/m 6,4 km/h (2 Bft) 100,00 %
05.06.2023 12:06 22,7 C 26,1 C 23,3 C 57 % 1020,7 hPa 0,0 l/m 2 min 0 min 851 W/m 12,9 km/h (3 Bft) 93,44 %
05.06.2023 12:08 22,7 C 26,7 C 23,3 C 56 % 1020,7 hPa 0,0 l/m 2 min 0 min 854 W/m 9,7 km/h (2 Bft) 97,87 %
05.06.2023 12:10 22,8 C 26,7 C 23,9 C 57 % 1020,7 hPa 0,0 l/m 2 min 0 min 856 W/m 12,9 km/h (3 Bft) 97,87 %
05.06.2023 12:12 22,8 C 27,2 C 24,4 C 57 % 1020,7 hPa 0,0 l/m 2 min 0 min 858 W/m 6,4 km/h (2 Bft) 97,87 %
05.06.2023 12:14 22,9 C 26,7 C 24,4 C 57 % 1020,7 hPa 0,0 l/m 2 min 0 min 861 W/m 19,3 km/h (3 Bft) 97,83 %
05.06.2023 12:16 23,0 C 27,2 C 24,4 C 56 % 1020,7 hPa 0,0 l/m 2 min 0 min 864 W/m 12,9 km/h (3 Bft) 97,87 %
05.06.2023 12:18 23,1 C 27,8 C 25,0 C 56 % 1020,6 hPa 0,0 l/m 2 min 0 min 866 W/m 12,9 km/h (3 Bft) 95,74 %
05.06.2023 12:20 23,3 C 27,8 C 25,6 C 56 % 1020,6 hPa 0,0 l/m 2 min 0 min 870 W/m 19,3 km/h (3 Bft) 97,87 %
05.06.2023 12:22 23,4 C 27,8 C 25,6 C 55 % 1020,6 hPa 0,0 l/m 2 min 0 min 874 W/m 6,4 km/h (2 Bft) 97,87 %
05.06.2023 12:24 23,5 C 28,3 C 25,6 C 56 % 1020,6 hPa 0,0 l/m 2 min 0 min 875 W/m 9,7 km/h (2 Bft) 95,74 %
05.06.2023 12:26 23,7 C 28,3 C 26,1 C 55 % 1020,6 hPa 0,0 l/m 2 min 0 min 872 W/m 16,1 km/h (3 Bft) 93,62 %
05.06.2023 12:28 23,6 C 27,2 C 26,1 C 52 % 1020,6 hPa 0,0 l/m 2 min 0 min 874 W/m 19,3 km/h (3 Bft) 95,65 %
05.06.2023 12:30 23,4 C 27,2 C 26,1 C 52 % 1020,6 hPa 0,0 l/m 2 min 0 min 879 W/m 19,3 km/h (3 Bft) 97,87 %
05.06.2023 12:32 23,4 C 27,2 C 26,1 C 54 % 1020,6 hPa 0,0 l/m 2 min 0 min 882 W/m 6,4 km/h (2 Bft) 97,87 %
05.06.2023 12:34 23,5 C 27,8 C 26,1 C 53 % 1020,6 hPa 0,0 l/m 2 min 0 min 881 W/m 16,1 km/h (3 Bft) 97,87 %
05.06.2023 12:36 23,6 C 28,3 C 26,7 C 54 % 1020,6 hPa 0,0 l/m 2 min 0 min 880 W/m 6,4 km/h (2 Bft) 97,87 %
05.06.2023 12:38 23,8 C 28,9 C 26,7 C 54 % 1020,5 hPa 0,0 l/m 2 min 0 min 882 W/m 6,4 km/h (2 Bft) 97,87 %
05.06.2023 12:40 23,9 C 28,9 C 27,2 C 55 % 1020,6 hPa 0,0 l/m 2 min 0 min 880 W/m 19,3 km/h (3 Bft) 97,83 %
05.06.2023 12:42 24,1 C 28,9 C 26,7 C 53 % 1020,6 hPa 0,0 l/m 2 min 0 min 883 W/m 12,9 km/h (3 Bft) 95,74 %
05.06.2023 12:44 24,1 C 28,3 C 26,7 C 54 % 1020,6 hPa 0,0 l/m 2 min 0 min 886 W/m 12,9 km/h (3 Bft) 97,87 %
05.06.2023 12:46 24,1 C 28,9 C 26,7 C 54 % 1020,5 hPa 0,0 l/m 2 min 0 min 886 W/m 6,4 km/h (2 Bft) 97,87 %
05.06.2023 12:48 24,1 C 28,3 C 27,2 C 54 % 1020,5 hPa 0,0 l/m 2 min 0 min 890 W/m 16,1 km/h (3 Bft) 93,62 %
05.06.2023 12:50 24,1 C 28,3 C 27,2 C 54 % 1020,5 hPa 0,0 l/m 2 min 0 min 892 W/m 6,4 km/h (2 Bft) 97,87 %
05.06.2023 12:52 24,1 C 28,3 C 27,2 C 54 % 1020,5 hPa 0,0 l/m 2 min 0 min 894 W/m 12,9 km/h (3 Bft) 97,87 %
05.06.2023 12:54 24,2 C 28,9 C 27,2 C 53 % 1020,5 hPa 0,0 l/m 2 min 0 min 899 W/m 9,7 km/h (2 Bft) 97,83 %
05.06.2023 12:56 24,3 C 28,9 C 27,2 C 54 % 1020,4 hPa 0,0 l/m 2 min 0 min 901 W/m 16,1 km/h (3 Bft) 97,87 %
05.06.2023 12:58 24,3 C 28,9 C 26,7 C 54 % 1020,4 hPa 0,0 l/m 2 min 0 min 900 W/m 12,9 km/h (3 Bft) 95,74 %
05.06.2023 13:00 24,4 C 29,4 C 26,7 C 52 % 1020,4 hPa 0,0 l/m 2 min 0 min 903 W/m 12,9 km/h (3 Bft) 95,74 %
05.06.2023 13:02 24,2 C 28,3 C 27,2 C 51 % 1020,3 hPa 0,0 l/m 2 min 0 min 898 W/m 12,9 km/h (3 Bft) 97,87 %
05.06.2023 13:04 24,2 C 27,8 C 27,2 C 50 % 1020,4 hPa 0,0 l/m 2 min 0 min 906 W/m 19,3 km/h (3 Bft) 97,96 %
05.06.2023 13:06 24,2 C 28,3 C 26,7 C 52 % 1020,4 hPa 0,0 l/m 2 min 0 min 900 W/m 16,1 km/h (3 Bft) 96,55 %
05.06.2023 13:08 24,2 C 28,9 C 26,7 C 53 % 1020,4 hPa 0,0 l/m 2 min 0 min 902 W/m 12,9 km/h (3 Bft) 97,14 %
05.06.2023 13:10 24,3 C 28,9 C 27,2 C 53 % 1020,4 hPa 0,0 l/m 2 min 0 min 906 W/m 16,1 km/h (3 Bft) 97,87 %
05.06.2023 13:12 24,3 C 28,9 C 26,7 C 53 % 1020,4 hPa 0,0 l/m 2 min 0 min 906 W/m 12,9 km/h (3 Bft) 100,00 %
05.06.2023 13:14 24,4 C 29,4 C 25,6 C 52 % 1020,3 hPa 0,0 l/m 2 min 0 min 900 W/m 25,7 km/h (4 Bft) 95,74 %
05.06.2023 13:16 24,4 C 28,9 C 26,7 C 53 % 1020,3 hPa 0,0 l/m 2 min 0 min 892 W/m 16,1 km/h (3 Bft) 97,87 %
05.06.2023 13:18 24,3 C 28,3 C 27,8 C 52 % 1020,3 hPa 0,0 l/m 2 min 0 min 896 W/m 22,5 km/h (4 Bft) 97,87 %
05.06.2023 13:20 24,3 C 28,9 C 28,3 C 53 % 1020,3 hPa 0,0 l/m 2 min 0 min 906 W/m 9,7 km/h (2 Bft) 97,83 %
05.06.2023 13:22 24,5 C 29,4 C 29,4 C 54 % 1020,3 hPa 0,0 l/m 2 min 0 min 910 W/m 12,9 km/h (3 Bft) 97,87 %
05.06.2023 13:24 24,6 C 29,4 C 28,9 C 50 % 1020,3 hPa 0,0 l/m 2 min 0 min 910 W/m 19,3 km/h (3 Bft) 97,87 %
05.06.2023 13:26 24,6 C 28,9 C 28,9 C 50 % 1020,3 hPa 0,0 l/m 2 min 0 min 909 W/m 19,3 km/h (3 Bft) 97,87 %
05.06.2023 13:28 24,7 C 30,0 C 28,3 C 51 % 1020,1 hPa 0,0 l/m 2 min 0 min 906 W/m 6,4 km/h (2 Bft) 97,87 %
05.06.2023 13:30 24,8 C 30,0 C 28,3 C 51 % 1020,2 hPa 0,0 l/m 2 min 0 min 911 W/m 9,7 km/h (2 Bft) 97,87 %
05.06.2023 13:32 24,8 C 29,4 C 27,8 C 49 % 1020,2 hPa 0,0 l/m 2 min 0 min 909 W/m 16,1 km/h (3 Bft) 97,83 %
05.06.2023 13:34 24,9 C 30,0 C 27,2 C 49 % 1020,2 hPa 0,0 l/m 2 min 0 min 912 W/m 12,9 km/h (3 Bft) 97,87 %
05.06.2023 13:36 24,9 C 29,4 C 27,2 C 48 % 1020,1 hPa 0,0 l/m 2 min 0 min 914 W/m 16,1 km/h (3 Bft) 95,74 %
05.06.2023 13:38 24,9 C 30,6 C 27,2 C 49 % 1020,1 hPa 0,0 l/m 2 min 0 min 906 W/m 9,7 km/h (2 Bft) 97,87 %
05.06.2023 13:40 24,9 C 30,0 C 27,8 C 49 % 1020,1 hPa 0,0 l/m 2 min 0 min 904 W/m 12,9 km/h (3 Bft) 95,74 %
05.06.2023 13:42 25,1 C 30,6 C 27,8 C 50 % 1020,1 hPa 0,0 l/m 2 min 0 min 899 W/m 12,9 km/h (3 Bft) 97,87 %
05.06.2023 13:44 25,1 C 30,0 C 28,3 C 49 % 1020,0 hPa 0,0 l/m 2 min 0 min 893 W/m 12,9 km/h (3 Bft) 97,87 %
05.06.2023 13:46 25,0 C 30,0 C 27,8 C 50 % 1020,1 hPa 0,0 l/m 2 min 0 min 906 W/m 16,1 km/h (3 Bft) 97,83 %
05.06.2023 13:48 25,0 C 30,6 C 28,3 C 51 % 1020,1 hPa 0,0 l/m 2 min 0 min 904 W/m 9,7 km/h (2 Bft) 97,87 %
05.06.2023 13:50 25,0 C 30,0 C 26,7 C 47 % 1020,1 hPa 0,0 l/m 2 min 0 min 907 W/m 16,1 km/h (3 Bft) 97,87 %
05.06.2023 13:52 25,1 C 30,6 C 25,0 C 44 % 1020,1 hPa 0,0 l/m 2 min 0 min 913 W/m 9,7 km/h (2 Bft) 95,74 %
05.06.2023 13:54 25,1 C 30,6 C 25,0 C 43 % 1020,1 hPa 0,0 l/m 2 min 0 min 909 W/m 6,4 km/h (2 Bft) 97,87 %
05.06.2023 13:56 25,2 C 31,7 C 24,4 C 45 % 1020,0 hPa 0,0 l/m 2 min 0 min 910 W/m 9,7 km/h (2 Bft) 93,62 %
05.06.2023 13:58 25,2 C 31,1 C 23,9 C 45 % 1020,0 hPa 0,0 l/m 2 min 0 min 903 W/m 16,1 km/h (3 Bft) 97,56 %
05.06.2023 14:00 25,3 C 31,1 C 23,3 C 46 % 1020,0 hPa 0,0 l/m 2 min 0 min 899 W/m 12,9 km/h (3 Bft) 93,62 %
05.06.2023 14:02 25,4 C 31,1 C 22,8 C 45 % 1020,0 hPa 0,0 l/m 2 min 0 min 902 W/m 9,7 km/h (2 Bft) 95,65 %
05.06.2023 14:04 25,5 C 31,7 C 22,2 C 44 % 1019,9 hPa 0,0 l/m 2 min 0 min 907 W/m 9,7 km/h (2 Bft) 95,92 %
05.06.2023 14:06 25,6 C 31,7 C 22,2 C 45 % 1019,9 hPa 0,0 l/m 2 min 0 min 902 W/m 9,7 km/h (2 Bft) 96,61 %
05.06.2023 14:08 25,6 C 31,1 C 21,7 C 45 % 1019,9 hPa 0,0 l/m 2 min 0 min 896 W/m 12,9 km/h (3 Bft) 97,14 %
05.06.2023 14:10 25,7 C 31,7 C 21,7 C 48 % 1019,9 hPa 0,0 l/m 2 min 0 min 898 W/m 9,7 km/h (2 Bft) 97,87 %
05.06.2023 14:12 25,7 C 30,6 C 21,7 C 47 % 1019,9 hPa 0,0 l/m 2 min 0 min 895 W/m 19,3 km/h (3 Bft) 97,87 %
05.06.2023 14:14 25,7 C 31,1 C 21,7 C 47 % 1019,8 hPa 0,0 l/m 2 min 0 min 896 W/m 12,9 km/h (3 Bft) 97,83 %
05.06.2023 14:16 25,7 C 31,7 C 21,7 C 43 % 1019,9 hPa 0,0 l/m 2 min 0 min 902 W/m 12,9 km/h (3 Bft) 97,87 %
05.06.2023 14:18 25,7 C 31,1 C 21,1 C 41 % 1019,9 hPa 0,0 l/m 2 min 0 min 902 W/m 16,1 km/h (3 Bft) 97,87 %
05.06.2023 14:20 25,7 C 31,7 C 21,7 C 43 % 1019,8 hPa 0,0 l/m 2 min 0 min 901 W/m 6,4 km/h (2 Bft) 93,62 %
05.06.2023 14:22 25,8 C 32,2 C 21,7 C 43 % 1019,7 hPa 0,0 l/m 2 min 0 min 899 W/m 12,9 km/h (3 Bft) 97,87 %
05.06.2023 14:24 25,9 C 31,7 C 21,7 C 42 % 1019,7 hPa 0,0 l/m 2 min 0 min 899 W/m 16,1 km/h (3 Bft) 97,87 %
05.06.2023 14:26 25,9 C 31,7 C 21,7 C 43 % 1019,7 hPa 0,0 l/m 2 min 0 min 895 W/m 12,9 km/h (3 Bft) 97,87 %
05.06.2023 14:28 26,1 C 32,8 C 21,7 C 43 % 1019,7 hPa 0,0 l/m 2 min 0 min 892 W/m 9,7 km/h (2 Bft) 97,83 %
05.06.2023 14:30 26,1 C 31,7 C 21,7 C 41 % 1019,7 hPa 0,0 l/m 2 min 0 min 887 W/m 12,9 km/h (3 Bft) 97,87 %
05.06.2023 14:32 26,2 C 31,1 C 21,7 C 39 % 1019,7 hPa 0,0 l/m 2 min 0 min 889 W/m 12,9 km/h (3 Bft) 97,87 %
05.06.2023 14:34 26,2 C 31,7 C 21,7 C 38 % 1019,7 hPa 0,0 l/m 2 min 0 min 893 W/m 12,9 km/h (3 Bft) 100,00 %
05.06.2023 14:36 26,3 C 32,8 C 21,7 C 40 % 1019,7 hPa 0,0 l/m 2 min 0 min 888 W/m 6,4 km/h (2 Bft) 100,00 %
05.06.2023 14:38 26,3 C 31,7 C 21,7 C 40 % 1019,6 hPa 0,0 l/m 2 min 0 min 884 W/m 12,9 km/h (3 Bft) 100,00 %
05.06.2023 14:40 26,4 C 32,2 C 21,7 C 40 % 1019,7 hPa 0,0 l/m 2 min 0 min 880 W/m 9,7 km/h (2 Bft) 100,00 %
05.06.2023 14:42 26,4 C 31,7 C 21,7 C 41 % 1019,6 hPa 0,0 l/m 2 min 0 min 877 W/m 12,9 km/h (3 Bft) 97,87 %
05.06.2023 14:44 26,4 C 31,7 C 21,7 C 40 % 1019,6 hPa 0,0 l/m 2 min 0 min 876 W/m 12,9 km/h (3 Bft) 100,00 %
05.06.2023 14:46 26,4 C 31,1 C 21,7 C 40 % 1019,6 hPa 0,0 l/m 2 min 0 min 874 W/m 12,9 km/h (3 Bft) 100,00 %
05.06.2023 14:48 26,4 C 31,1 C 21,7 C 40 % 1019,7 hPa 0,0 l/m 2 min 0 min 873 W/m 19,3 km/h (3 Bft) 100,00 %
05.06.2023 14:50 26,3 C 31,1 C 21,1 C 39 % 1019,6 hPa 0,0 l/m 2 min 0 min 871 W/m 16,1 km/h (3 Bft) 100,00 %
05.06.2023 14:52 26,3 C 31,7 C 21,7 C 39 % 1019,6 hPa 0,0 l/m 2 min 0 min 865 W/m 9,7 km/h (2 Bft) 97,87 %
05.06.2023 14:54 26,2 C 31,7 C 21,7 C 40 % 1019,6 hPa 0,0 l/m 2 min 0 min 860 W/m 16,1 km/h (3 Bft) 100,00 %
05.06.2023 14:56 26,3 C 32,2 C 21,7 C 40 % 1019,5 hPa 0,0 l/m 2 min 0 min 860 W/m 9,7 km/h (2 Bft) 100,00 %
05.06.2023 14:58 26,3 C 32,2 C 21,7 C 40 % 1019,5 hPa 0,0 l/m 2 min 0 min 866 W/m 12,9 km/h (3 Bft) 97,87 %
05.06.2023 15:00 26,3 C 31,7 C 21,7 C 40 % 1019,5 hPa 0,0 l/m 2 min 0 min 863 W/m 12,9 km/h (3 Bft) 95,74 %
05.06.2023 15:02 26,3 C 32,2 C 21,1 C 39 % 1019,5 hPa 0,0 l/m 2 min 0 min 857 W/m 9,7 km/h (2 Bft) 97,87 %
05.06.2023 15:04 26,4 C 32,2 C 21,7 C 41 % 1019,5 hPa 0,0 l/m 2 min 0 min 857 W/m 16,1 km/h (3 Bft) 97,92 %
05.06.2023 15:06 26,5 C 32,8 C 21,7 C 40 % 1019,5 hPa 0,0 l/m 2 min 0 min 858 W/m 9,7 km/h (2 Bft) 98,28 %
05.06.2023 15:08 26,5 C 32,2 C 21,7 C 40 % 1019,5 hPa 0,0 l/m 2 min 0 min 857 W/m 9,7 km/h (2 Bft) 97,14 %
05.06.2023 15:10 26,6 C 31,7 C 21,7 C 39 % 1019,5 hPa 0,0 l/m 2 min 0 min 851 W/m 9,7 km/h (2 Bft) 97,87 %
05.06.2023 15:12 26,5 C 31,7 C 21,7 C 39 % 1019,4 hPa 0,0 l/m 2 min 0 min 850 W/m 16,1 km/h (3 Bft) 97,87 %
05.06.2023 15:14 26,4 C 31,1 C 21,7 C 39 % 1019,5 hPa 0,0 l/m 2 min 0 min 849 W/m 6,4 km/h (2 Bft) 97,87 %
05.06.2023 15:16 26,4 C 31,1 C 21,7 C 38 % 1019,4 hPa 0,0 l/m 2 min 0 min 842 W/m 12,9 km/h (3 Bft) 97,92 %
05.06.2023 15:18 26,4 C 31,1 C 21,7 C 40 % 1019,5 hPa 0,0 l/m 2 min 0 min 836 W/m 6,4 km/h (2 Bft) 95,74 %
05.06.2023 15:20 26,4 C 31,1 C 21,7 C 39 % 1019,4 hPa 0,0 l/m 2 min 0 min 835 W/m 19,3 km/h (3 Bft) 97,83 %
05.06.2023 15:22 26,4 C 31,1 C 21,7 C 39 % 1019,4 hPa 0,0 l/m 2 min 0 min 831 W/m 12,9 km/h (3 Bft) 97,87 %
05.06.2023 15:24 26,3 C 31,1 C 21,1 C 39 % 1019,4 hPa 0,0 l/m 2 min 0 min 826 W/m 9,7 km/h (2 Bft) 97,87 %
05.06.2023 15:26 26,3 C 31,1 C 21,7 C 41 % 1019,4 hPa 0,0 l/m 2 min 0 min 822 W/m 12,9 km/h (3 Bft) 97,87 %
05.06.2023 15:28 26,4 C 31,1 C 21,7 C 41 % 1019,4 hPa 0,0 l/m 2 min 0 min 818 W/m 9,7 km/h (2 Bft) 97,87 %
05.06.2023 15:30 26,4 C 31,1 C 21,7 C 38 % 1019,3 hPa 0,0 l/m 2 min 0 min 817 W/m 9,7 km/h (2 Bft) 97,87 %
05.06.2023 15:32 26,3 C 31,1 C 21,7 C 39 % 1019,3 hPa 0,0 l/m 2 min 0 min 816 W/m 12,9 km/h (3 Bft) 97,83 %
05.06.2023 15:34 26,4 C 31,1 C 21,7 C 39 % 1019,3 hPa 0,0 l/m 2 min 0 min 814 W/m 9,7 km/h (2 Bft) 95,74 %
05.06.2023 15:36 26,4 C 31,1 C 21,7 C 39 % 1019,2 hPa 0,0 l/m 2 min 0 min 814 W/m 16,1 km/h (3 Bft) 95,74 %
05.06.2023 15:38 26,4 C 31,1 C 21,7 C 39 % 1019,1 hPa 0,0 l/m 2 min 0 min 813 W/m 9,7 km/h (2 Bft) 97,87 %
05.06.2023 15:40 26,5 C 31,7 C 21,7 C 40 % 1019,2 hPa 0,0 l/m 2 min 0 min 807 W/m 6,4 km/h (2 Bft) 100,00 %
05.06.2023 15:42 26,6 C 31,1 C 21,7 C 40 % 1019,1 hPa 0,0 l/m 2 min 0 min 803 W/m 22,5 km/h (4 Bft) 100,00 %
05.06.2023 15:44 26,6 C 31,1 C 21,7 C 39 % 1019,1 hPa 0,0 l/m 2 min 0 min 803 W/m 9,7 km/h (2 Bft) 97,87 %
05.06.2023 15:46 26,6 C 30,0 C 21,7 C 38 % 1019,1 hPa 0,0 l/m 2 min 0 min 796 W/m 12,9 km/h (3 Bft) 100,00 %
05.06.2023 15:48 26,5 C 30,6 C 21,7 C 40 % 1019,1 hPa 0,0 l/m 2 min 0 min 791 W/m 6,4 km/h (2 Bft) 100,00 %
05.06.2023 15:50 26,6 C 31,1 C 22,2 C 39 % 1019,1 hPa 0,0 l/m 2 min 0 min 787 W/m 12,9 km/h (3 Bft) 100,00 %
05.06.2023 15:52 26,6 C 31,1 C 22,2 C 38 % 1019,1 hPa 0,0 l/m 2 min 0 min 787 W/m 19,3 km/h (3 Bft) 100,00 %
05.06.2023 15:54 26,6 C 31,1 C 21,7 C 39 % 1019,1 hPa 0,0 l/m 2 min 0 min 784 W/m 9,7 km/h (2 Bft) 97,87 %
05.06.2023 15:56 26,6 C 31,1 C 21,7 C 38 % 1019,1 hPa 0,0 l/m 2 min 0 min 778 W/m 9,7 km/h (2 Bft) 97,87 %
05.06.2023 15:58 26,6 C 31,1 C 21,7 C 37 % 1019,0 hPa 0,0 l/m 2 min 0 min 776 W/m 6,4 km/h (2 Bft) 97,87 %
05.06.2023 16:00 26,5 C 30,0 C 21,7 C 38 % 1018,9 hPa 0,0 l/m 2 min 0 min 772 W/m 19,3 km/h (3 Bft) 97,83 %
05.06.2023 16:02 26,4 C 30,0 C 21,7 C 39 % 1018,9 hPa 0,0 l/m 2 min 0 min 766 W/m 19,3 km/h (3 Bft) 95,74 %
05.06.2023 16:04 26,4 C 30,0 C 21,7 C 39 % 1019,0 hPa 0,0 l/m 2 min 0 min 761 W/m 19,3 km/h (3 Bft) 97,92 %
05.06.2023 16:06 26,4 C 30,6 C 21,7 C 40 % 1018,9 hPa 0,0 l/m 2 min 0 min 758 W/m 16,1 km/h (3 Bft) 97,87 %
05.06.2023 16:08 26,6 C 30,6 C 22,2 C 41 % 1019,0 hPa 0,0 l/m 2 min 0 min 755 W/m 9,7 km/h (2 Bft) 97,87 %
05.06.2023 16:10 26,6 C 31,1 C 21,7 C 41 % 1018,9 hPa 0,0 l/m 2 min 0 min 753 W/m 9,7 km/h (2 Bft) 95,74 %
05.06.2023 16:12 26,7 C 30,6 C 21,7 C 39 % 1018,9 hPa 0,0 l/m 2 min 0 min 750 W/m 9,7 km/h (2 Bft) 91,30 %
05.06.2023 16:14 26,7 C 31,1 C 22,2 C 40 % 1018,9 hPa 0,0 l/m 2 min 0 min 747 W/m 12,9 km/h (3 Bft) 97,87 %
05.06.2023 16:16 26,8 C 31,1 C 22,2 C 40 % 1018,9 hPa 0,0 l/m 2 min 0 min 742 W/m 12,9 km/h (3 Bft) 93,62 %
05.06.2023 16:18 26,8 C 31,1 C 22,2 C 38 % 1018,9 hPa 0,0 l/m 2 min 0 min 737 W/m 9,7 km/h (2 Bft) 93,62 %
05.06.2023 16:20 26,7 C 30,6 C 21,7 C 38 % 1018,9 hPa 0,0 l/m 2 min 0 min 737 W/m 16,1 km/h (3 Bft) 95,74 %
05.06.2023 16:22 26,7 C 31,1 C 22,2 C 39 % 1018,8 hPa 0,0 l/m 2 min 0 min 730 W/m 6,4 km/h (2 Bft) 95,74 %
05.06.2023 16:24 26,8 C 31,1 C 22,2 C 39 % 1018,9 hPa 0,0 l/m 2 min 0 min 726 W/m 6,4 km/h (2 Bft) 95,74 %
05.06.2023 16:26 26,8 C 31,7 C 22,2 C 41 % 1018,8 hPa 0,0 l/m 2 min 0 min 718 W/m 6,4 km/h (2 Bft) 95,65 %
05.06.2023 16:28 27,0 C 31,1 C 22,2 C 41 % 1018,8 hPa 0,0 l/m 2 min 0 min 714 W/m 6,4 km/h (2 Bft) 97,87 %
05.06.2023 16:30 27,1 C 31,7 C 22,2 C 39 % 1018,8 hPa 0,0 l/m 2 min 0 min 710 W/m 9,7 km/h (2 Bft) 97,87 %
05.06.2023 16:32 27,1 C 31,7 C 22,2 C 39 % 1018,8 hPa 0,0 l/m 2 min 0 min 708 W/m 6,4 km/h (2 Bft) 97,87 %
05.06.2023 16:34 27,2 C 31,7 C 22,8 C 39 % 1018,8 hPa 0,0 l/m 2 min 0 min 703 W/m 16,1 km/h (3 Bft) 95,74 %
05.06.2023 16:36 27,2 C 31,1 C 22,8 C 38 % 1018,8 hPa 0,0 l/m 2 min 0 min 699 W/m 6,4 km/h (2 Bft) 97,87 %
05.06.2023 16:38 27,1 C 31,1 C 22,2 C 37 % 1018,7 hPa 0,0 l/m 2 min 0 min 695 W/m 9,7 km/h (2 Bft) 97,83 %
05.06.2023 16:40 27,1 C 31,1 C 22,2 C 38 % 1018,7 hPa 0,0 l/m 2 min 0 min 691 W/m 6,4 km/h (2 Bft) 97,87 %
05.06.2023 16:42 27,0 C 30,6 C 22,2 C 38 % 1018,7 hPa 0,0 l/m 2 min 0 min 685 W/m 12,9 km/h (3 Bft) 97,87 %
05.06.2023 16:44 27,0 C 31,1 C 22,2 C 38 % 1018,7 hPa 0,0 l/m 2 min 0 min 682 W/m 19,3 km/h (3 Bft) 97,87 %
05.06.2023 16:46 26,9 C 30,6 C 22,2 C 39 % 1018,7 hPa 0,0 l/m 2 min 0 min 678 W/m 12,9 km/h (3 Bft) 97,87 %
05.06.2023 16:48 26,8 C 31,1 C 22,2 C 39 % 1018,7 hPa 0,0 l/m 2 min 0 min 670 W/m 16,1 km/h (3 Bft) 97,87 %
05.06.2023 16:50 26,8 C 30,6 C 22,2 C 39 % 1018,7 hPa 0,0 l/m 2 min 0 min 663 W/m 19,3 km/h (3 Bft) 97,87 %
05.06.2023 16:52 26,7 C 30,0 C 22,2 C 38 % 1018,7 hPa 0,0 l/m 2 min 0 min 656 W/m 12,9 km/h (3 Bft) 95,65 %
05.06.2023 16:54 26,7 C 30,6 C 22,2 C 38 % 1018,7 hPa 0,0 l/m 2 min 0 min 652 W/m 12,9 km/h (3 Bft) 96,00 %
05.06.2023 16:56 26,7 C 30,6 C 22,8 C 39 % 1018,7 hPa 0,0 l/m 2 min 0 min 649 W/m 12,9 km/h (3 Bft) 97,87 %
05.06.2023 16:58 26,8 C 30,6 C 22,8 C 39 % 1018,7 hPa 0,0 l/m 2 min 0 min 645 W/m 12,9 km/h (3 Bft) 97,87 %
05.06.2023 17:00 26,8 C 31,1 C 22,8 C 39 % 1018,7 hPa 0,0 l/m 2 min 0 min 640 W/m 12,9 km/h (3 Bft) 97,87 %
05.06.2023 17:02 26,9 C 31,7 C 22,8 C 40 % 1018,7 hPa 0,0 l/m 2 min 0 min 633 W/m 12,9 km/h (3 Bft) 97,87 %
05.06.2023 17:04 26,9 C 31,7 C 22,8 C 40 % 1018,6 hPa 0,0 l/m 2 min 0 min 628 W/m 6,4 km/h (2 Bft) 95,74 %
05.06.2023 17:06 27,0 C 31,7 C 23,3 C 40 % 1018,6 hPa 0,0 l/m 2 min 0 min 621 W/m 9,7 km/h (2 Bft) 97,87 %
05.06.2023 17:08 27,1 C 31,7 C 23,3 C 40 % 1018,6 hPa 0,0 l/m 2 min 0 min 617 W/m 6,4 km/h (2 Bft) 100,00 %
05.06.2023 17:10 27,1 C 31,7 C 23,3 C 40 % 1018,6 hPa 0,0 l/m 2 min 0 min 611 W/m 12,9 km/h (3 Bft) 100,00 %
05.06.2023 17:12 27,1 C 31,7 C 23,3 C 39 % 1018,5 hPa 0,0 l/m 2 min 0 min 604 W/m 9,7 km/h (2 Bft) 100,00 %
05.06.2023 17:14 27,1 C 31,1 C 23,3 C 40 % 1018,6 hPa 0,0 l/m 2 min 0 min 595 W/m 12,9 km/h (3 Bft) 97,87 %
05.06.2023 17:16 27,1 C 31,7 C 23,3 C 41 % 1018,6 hPa 0,0 l/m 2 min 0 min 592 W/m 16,1 km/h (3 Bft) 100,00 %
05.06.2023 17:18 27,1 C 32,2 C 23,3 C 40 % 1018,6 hPa 0,0 l/m 2 min 0 min 587 W/m 6,4 km/h (2 Bft) 97,87 %
05.06.2023 17:20 27,1 C 32,2 C 23,3 C 40 % 1018,5 hPa 0,0 l/m 2 min 0 min 583 W/m 6,4 km/h (2 Bft) 100,00 %
05.06.2023 17:22 27,2 C 32,2 C 23,3 C 40 % 1018,5 hPa 0,0 l/m 2 min 0 min 573 W/m 6,4 km/h (2 Bft) 100,00 %
05.06.2023 17:24 27,2 C 32,2 C 23,3 C 40 % 1018,5 hPa 0,0 l/m 2 min 0 min 566 W/m 9,7 km/h (2 Bft) 97,87 %
05.06.2023 17:26 27,3 C 32,2 C 23,3 C 40 % 1018,5 hPa 0,0 l/m 2 min 0 min 564 W/m 6,4 km/h (2 Bft) 97,87 %
05.06.2023 17:28 27,2 C 31,1 C 22,8 C 39 % 1018,5 hPa 0,0 l/m 2 min 0 min 563 W/m 16,1 km/h (3 Bft) 97,87 %
05.06.2023 17:30 27,2 C 30,0 C 22,8 C 38 % 1018,5 hPa 0,0 l/m 2 min 0 min 559 W/m 22,5 km/h (4 Bft) 97,87 %
05.06.2023 17:32 27,0 C 29,4 C 22,8 C 39 % 1018,5 hPa 0,0 l/m 2 min 0 min 552 W/m 16,1 km/h (3 Bft) 97,87 %
05.06.2023 17:34 26,9 C 30,0 C 22,8 C 40 % 1018,6 hPa 0,0 l/m 2 min 0 min 547 W/m 12,9 km/h (3 Bft) 97,83 %
05.06.2023 17:36 26,8 C 30,0 C 22,8 C 39 % 1018,6 hPa 0,0 l/m 2 min 0 min 542 W/m 16,1 km/h (3 Bft) 97,87 %
05.06.2023 17:38 26,8 C 30,0 C 22,8 C 39 % 1018,5 hPa 0,0 l/m 2 min 0 min 535 W/m 6,4 km/h (2 Bft) 93,62 %
05.06.2023 17:40 26,8 C 30,6 C 22,8 C 40 % 1018,5 hPa 0,0 l/m 2 min 0 min 533 W/m 12,9 km/h (3 Bft) 97,87 %
05.06.2023 17:42 26,9 C 31,1 C 23,3 C 41 % 1018,5 hPa 0,0 l/m 2 min 0 min 528 W/m 6,4 km/h (2 Bft) 97,87 %
05.06.2023 17:44 26,9 C 31,1 C 23,3 C 41 % 1018,5 hPa 0,0 l/m 2 min 0 min 524 W/m 9,7 km/h (2 Bft) 97,87 %
05.06.2023 17:46 27,1 C 31,7 C 23,3 C 40 % 1018,4 hPa 0,0 l/m 2 min 0 min 520 W/m 6,4 km/h (2 Bft) 93,48 %
05.06.2023 17:48 27,1 C 31,1 C 23,3 C 40 % 1018,4 hPa 0,0 l/m 2 min 0 min 512 W/m 12,9 km/h (3 Bft) 95,74 %
05.06.2023 17:50 27,1 C 31,1 C 23,3 C 40 % 1018,4 hPa 0,0 l/m 2 min 0 min 504 W/m 6,4 km/h (2 Bft) 93,62 %
05.06.2023 17:52 27,1 C 31,1 C 23,3 C 40 % 1018,4 hPa 0,0 l/m 2 min 0 min 501 W/m 6,4 km/h (2 Bft) 95,74 %
05.06.2023 17:54 27,2 C 31,1 C 23,3 C 40 % 1018,4 hPa 0,0 l/m 2 min 0 min 496 W/m 9,7 km/h (2 Bft) 95,74 %
05.06.2023 17:56 27,1 C 30,6 C 23,3 C 40 % 1018,4 hPa 0,0 l/m 2 min 0 min 492 W/m 12,9 km/h (3 Bft) 93,62 %
05.06.2023 17:58 27,1 C 31,1 C 23,3 C 41 % 1018,4 hPa 0,0 l/m 2 min 0 min 487 W/m 6,4 km/h (2 Bft) 95,74 %
05.06.2023 18:00 27,2 C 31,1 C 23,3 C 41 % 1018,4 hPa 0,0 l/m 2 min 0 min 481 W/m 6,4 km/h (2 Bft) 95,65 %
05.06.2023 18:02 27,3 C 31,1 C 23,3 C 40 % 1018,3 hPa 0,0 l/m 2 min 0 min 477 W/m 9,7 km/h (2 Bft) 97,87 %
05.06.2023 18:04 27,2 C 31,1 C 23,3 C 40 % 1018,3 hPa 0,0 l/m 2 min 0 min 471 W/m 6,4 km/h (2 Bft) 95,92 %
05.06.2023 18:07 27,1 C 30,6 C 23,3 C 40 % 1018,3 hPa 0,0 l/m 3 min 0 min 459 W/m 12,9 km/h (3 Bft) 95,92 %
05.06.2023 18:08 27,1 C 30,6 C 23,3 C 40 % 1018,3 hPa 0,0 l/m 1 min 0 min 462 W/m 12,9 km/h (3 Bft) 95,10 %
05.06.2023 18:12 26,8 C 30,0 C 22,8 C 39 % 1018,2 hPa 0,0 l/m 4 min 0 min 447 W/m 6,4 km/h (2 Bft) 98,00 %
05.06.2023 18:14 26,8 C 30,6 C 23,3 C 41 % 1018,3 hPa 0,0 l/m 2 min 0 min 441 W/m 6,4 km/h (2 Bft) 95,74 %
05.06.2023 18:16 26,9 C 30,6 C 23,3 C 42 % 1018,2 hPa 0,0 l/m 2 min 0 min 436 W/m 6,4 km/h (2 Bft) 97,87 %
05.06.2023 18:18 26,9 C 31,1 C 23,3 C 42 % 1018,2 hPa 0,0 l/m 2 min 0 min 433 W/m 6,4 km/h (2 Bft) 100,00 %
05.06.2023 18:20 27,1 C 31,7 C 23,3 C 42 % 1018,2 hPa 0,0 l/m 2 min 0 min 429 W/m 6,4 km/h (2 Bft) 100,00 %
05.06.2023 18:22 27,1 C 32,2 C 23,3 C 42 % 1018,2 hPa 0,0 l/m 2 min 0 min 422 W/m 6,4 km/h (2 Bft) 100,00 %
05.06.2023 18:24 27,1 C 31,7 C 23,3 C 41 % 1018,2 hPa 0,0 l/m 2 min 0 min 417 W/m 12,9 km/h (3 Bft) 100,00 %
05.06.2023 18:26 27,1 C 30,6 C 22,8 C 40 % 1018,2 hPa 0,0 l/m 2 min 0 min 412 W/m 12,9 km/h (3 Bft) 100,00 %
05.06.2023 18:28 27,0 C 30,0 C 22,8 C 40 % 1018,2 hPa 0,0 l/m 2 min 0 min 407 W/m 12,9 km/h (3 Bft) 97,87 %
05.06.2023 18:30 26,8 C 30,0 C 22,8 C 40 % 1018,1 hPa 0,0 l/m 2 min 0 min 403 W/m 6,4 km/h (2 Bft) 100,00 %
05.06.2023 18:32 26,7 C 30,0 C 22,8 C 39 % 1018,1 hPa 0,0 l/m 2 min 0 min 398 W/m 12,9 km/h (3 Bft) 100,00 %
05.06.2023 18:34 26,7 C 30,6 C 22,8 C 40 % 1018,1 hPa 0,0 l/m 2 min 0 min 391 W/m 6,4 km/h (2 Bft) 97,87 %
05.06.2023 18:36 26,7 C 30,6 C 22,8 C 40 % 1018,1 hPa 0,0 l/m 2 min 0 min 386 W/m 12,9 km/h (3 Bft) 95,65 %
05.06.2023 18:38 26,6 C 30,0 C 22,8 C 40 % 1018,1 hPa 0,0 l/m 2 min 0 min 378 W/m 12,9 km/h (3 Bft) 100,00 %
05.06.2023 18:40 26,6 C 30,0 C 22,8 C 40 % 1018,1 hPa 0,0 l/m 2 min 0 min 375 W/m 12,9 km/h (3 Bft) 100,00 %
05.06.2023 18:42 26,6 C 30,0 C 22,8 C 40 % 1018,1 hPa 0,0 l/m 2 min 0 min 369 W/m 9,7 km/h (2 Bft) 100,00 %
05.06.2023 18:44 26,6 C 29,4 C 22,8 C 40 % 1018,0 hPa 0,0 l/m 2 min 0 min 364 W/m 16,1 km/h (3 Bft) 100,00 %
05.06.2023 18:46 26,6 C 30,0 C 22,8 C 41 % 1018,0 hPa 0,0 l/m 2 min 0 min 359 W/m 6,4 km/h (2 Bft) 100,00 %
05.06.2023 18:48 26,6 C 30,6 C 22,8 C 43 % 1018,0 hPa 0,0 l/m 2 min 0 min 351 W/m 6,4 km/h (2 Bft) 97,87 %
05.06.2023 18:50 26,6 C 31,1 C 22,8 C 42 % 1018,0 hPa 0,0 l/m 2 min 0 min 346 W/m 6,4 km/h (2 Bft) 100,00 %
05.06.2023 18:52 26,7 C 31,1 C 22,8 C 41 % 1017,9 hPa 0,0 l/m 2 min 0 min 339 W/m 9,7 km/h (2 Bft) 100,00 %
05.06.2023 18:54 26,6 C 30,6 C 22,8 C 41 % 1018,0 hPa 0,0 l/m 2 min 0 min 333 W/m 9,7 km/h (2 Bft) 95,74 %
05.06.2023 18:56 26,6 C 30,6 C 22,8 C 42 % 1018,0 hPa 0,0 l/m 2 min 0 min 329 W/m 12,9 km/h (3 Bft) 100,00 %
05.06.2023 18:58 26,6 C 30,6 C 22,8 C 42 % 1018,0 hPa 0,0 l/m 2 min 0 min 323 W/m 6,4 km/h (2 Bft) 100,00 %
05.06.2023 19:00 26,7 C 30,0 C 22,8 C 41 % 1018,1 hPa 0,0 l/m 2 min 0 min 317 W/m 6,4 km/h (2 Bft) 100,00 %
05.06.2023 19:02 26,7 C 30,0 C 22,8 C 41 % 1018,0 hPa 0,0 l/m 2 min 0 min 310 W/m 12,9 km/h (3 Bft) 100,00 %
05.06.2023 19:04 26,7 C 30,0 C 22,8 C 41 % 1018,0 hPa 0,0 l/m 2 min 0 min 304 W/m 6,4 km/h (2 Bft) 100,00 %
05.06.2023 19:06 26,6 C 29,4 C 22,2 C 41 % 1018,0 hPa 0,0 l/m 2 min 0 min 297 W/m 12,9 km/h (3 Bft) 100,00 %
05.06.2023 19:08 26,5 C 28,9 C 22,2 C 40 % 1018,0 hPa 0,0 l/m 2 min 0 min 292 W/m 12,9 km/h (3 Bft) 100,00 %
05.06.2023 19:10 26,4 C 28,3 C 21,7 C 40 % 1018,0 hPa 0,0 l/m 2 min 0 min 287 W/m 9,7 km/h (2 Bft) 100,00 %
05.06.2023 19:12 26,3 C 28,9 C 21,7 C 41 % 1018,0 hPa 0,0 l/m 2 min 0 min 282 W/m 6,4 km/h (2 Bft) 97,83 %
05.06.2023 19:14 26,3 C 28,9 C 21,7 C 42 % 1018,0 hPa 0,0 l/m 2 min 0 min 277 W/m 9,7 km/h (2 Bft) 100,00 %
05.06.2023 19:16 26,2 C 28,3 C 21,1 C 41 % 1018,0 hPa 0,0 l/m 2 min 0 min 270 W/m 6,4 km/h (2 Bft) 100,00 %
05.06.2023 19:18 26,1 C 28,3 C 21,1 C 41 % 1017,9 hPa 0,0 l/m 2 min 0 min 265 W/m 6,4 km/h (2 Bft) 100,00 %
05.06.2023 19:20 26,0 C 28,3 C 21,1 C 41 % 1017,9 hPa 0,0 l/m 2 min 0 min 258 W/m 9,7 km/h (2 Bft) 100,00 %
05.06.2023 19:22 25,9 C 27,8 C 21,1 C 41 % 1017,9 hPa 0,0 l/m 2 min 0 min 252 W/m 6,4 km/h (2 Bft) 97,87 %
05.06.2023 19:24 25,9 C 27,8 C 21,1 C 42 % 1017,9 hPa 0,0 l/m 2 min 0 min 247 W/m 12,9 km/h (3 Bft) 100,00 %
05.06.2023 19:26 25,8 C 27,2 C 20,6 C 42 % 1017,9 hPa 0,0 l/m 2 min 0 min 241 W/m 6,4 km/h (2 Bft) 97,87 %
05.06.2023 19:30 25,7 C 27,2 C 20,6 C 43 % 1018,0 hPa 0,0 l/m 4 min 0 min 230 W/m 3,2 km/h (1 Bft) 98,86 %
05.06.2023 19:32 25,6 C 26,7 C 20,6 C 43 % 1017,9 hPa 0,0 l/m 2 min 0 min 222 W/m 9,7 km/h (2 Bft) 100,00 %
05.06.2023 19:34 25,6 C 26,1 C 20,6 C 43 % 1017,9 hPa 0,0 l/m 2 min 0 min 216 W/m 16,1 km/h (3 Bft) 100,00 %
05.06.2023 19:36 25,5 C 25,0 C 20,6 C 43 % 1017,9 hPa 0,0 l/m 2 min 0 min 210 W/m 6,4 km/h (2 Bft) 97,87 %
05.06.2023 19:38 25,4 C 25,0 C 20,6 C 43 % 1017,9 hPa 0,0 l/m 2 min 0 min 205 W/m 9,7 km/h (2 Bft) 100,00 %
05.06.2023 19:40 25,3 C 24,4 C 20,6 C 43 % 1018,0 hPa 0,0 l/m 2 min 0 min 199 W/m 12,9 km/h (3 Bft) 97,83 %
05.06.2023 19:42 25,2 C 24,4 C 20,6 C 43 % 1018,0 hPa 0,0 l/m 2 min 0 min 192 W/m 12,9 km/h (3 Bft) 100,00 %
05.06.2023 19:44 25,2 C 23,9 C 20,6 C 43 % 1018,0 hPa 0,0 l/m 2 min 0 min 185 W/m 9,7 km/h (2 Bft) 95,74 %
05.06.2023 19:46 25,1 C 23,9 C 20,0 C 44 % 1018,0 hPa 0,0 l/m 2 min 0 min 180 W/m 9,7 km/h (2 Bft) 95,74 %
05.06.2023 19:48 25,0 C 23,9 C 20,0 C 44 % 1018,0 hPa 0,0 l/m 2 min 0 min 175 W/m 6,4 km/h (2 Bft) 93,62 %
05.06.2023 19:50 24,9 C 23,9 C 20,0 C 45 % 1018,1 hPa 0,0 l/m 2 min 0 min 170 W/m 3,2 km/h (1 Bft) 95,74 %
05.06.2023 19:52 24,9 C 23,9 C 20,0 C 45 % 1018,1 hPa 0,0 l/m 2 min 0 min 153 W/m 3,2 km/h (1 Bft) 93,62 %
05.06.2023 19:54 24,8 C 23,9 C 20,0 C 46 % 1018,1 hPa 0,0 l/m 0 min 0 min 108 W/m 6,4 km/h (2 Bft) 95,65 %
05.06.2023 19:56 24,8 C 23,9 C 20,0 C 45 % 1018,0 hPa 0,0 l/m 0 min 0 min 78 W/m 6,4 km/h (2 Bft) 95,74 %
05.06.2023 19:58 24,7 C 23,9 C 20,0 C 45 % 1018,0 hPa 0,0 l/m 0 min 0 min 74 W/m 6,4 km/h (2 Bft) 93,62 %
05.06.2023 20:00 24,7 C 23,9 C 20,0 C 45 % 1018,1 hPa 0,0 l/m 0 min 0 min 72 W/m 9,7 km/h (2 Bft) 93,62 %
05.06.2023 20:02 24,6 C 23,9 C 20,0 C 46 % 1018,0 hPa 0,0 l/m 0 min 0 min 70 W/m 6,4 km/h (2 Bft) 93,62 %
05.06.2023 20:04 24,6 C 23,3 C 20,0 C 45 % 1018,1 hPa 0,0 l/m 0 min 0 min 69 W/m 12,9 km/h (3 Bft) 91,49 %
05.06.2023 20:06 24,4 C 23,3 C 19,4 C 45 % 1018,1 hPa 0,0 l/m 0 min 0 min 68 W/m 6,4 km/h (2 Bft) 91,53 %
05.06.2023 20:08 24,3 C 23,3 C 19,4 C 45 % 1018,1 hPa 0,0 l/m 0 min 0 min 67 W/m 6,4 km/h (2 Bft) 97,22 %
05.06.2023 20:10 24,2 C 23,3 C 19,4 C 46 % 1018,2 hPa 0,0 l/m 0 min 0 min 65 W/m 6,4 km/h (2 Bft) 93,48 %
05.06.2023 20:12 24,2 C 23,3 C 19,4 C 46 % 1018,1 hPa 0,0 l/m 0 min 0 min 63 W/m 6,4 km/h (2 Bft) 89,36 %
05.06.2023 20:14 24,1 C 23,3 C 19,4 C 47 % 1018,2 hPa 0,0 l/m 0 min 0 min 62 W/m 6,4 km/h (2 Bft) 91,49 %
05.06.2023 20:16 24,1 C 23,3 C 19,4 C 47 % 1018,1 hPa 0,0 l/m 0 min 0 min 62 W/m 9,7 km/h (2 Bft) 95,74 %
05.06.2023 20:18 24,0 C 23,3 C 19,4 C 47 % 1018,2 hPa 0,0 l/m 0 min 0 min 59 W/m 6,4 km/h (2 Bft) 95,74 %
05.06.2023 20:20 23,9 C 23,3 C 19,4 C 47 % 1018,1 hPa 0,0 l/m 0 min 0 min 58 W/m 6,4 km/h (2 Bft) 95,74 %
05.06.2023 20:22 23,9 C 23,3 C 19,4 C 47 % 1018,1 hPa 0,0 l/m 0 min 0 min 56 W/m 6,4 km/h (2 Bft) 95,74 %
05.06.2023 20:24 23,8 C 22,8 C 19,4 C 47 % 1018,1 hPa 0,0 l/m 0 min 0 min 54 W/m 12,9 km/h (3 Bft) 95,65 %
05.06.2023 20:26 23,8 C 22,8 C 19,4 C 47 % 1018,2 hPa 0,0 l/m 0 min 0 min 54 W/m 9,7 km/h (2 Bft) 95,74 %
05.06.2023 20:28 23,7 C 22,8 C 19,4 C 47 % 1018,2 hPa 0,0 l/m 0 min 0 min 52 W/m 3,2 km/h (1 Bft) 93,62 %
05.06.2023 20:30 23,7 C 22,8 C 18,9 C 48 % 1018,2 hPa 0,0 l/m 0 min 0 min 50 W/m 6,4 km/h (2 Bft) 95,74 %
05.06.2023 20:32 23,7 C 22,8 C 18,9 C 49 % 1018,3 hPa 0,0 l/m 0 min 0 min 49 W/m 6,4 km/h (2 Bft) 93,62 %
05.06.2023 20:34 23,6 C 22,8 C 18,9 C 48 % 1018,2 hPa 0,0 l/m 0 min 0 min 47 W/m 6,4 km/h (2 Bft) 95,74 %
05.06.2023 20:36 23,5 C 22,8 C 18,9 C 47 % 1018,2 hPa 0,0 l/m 0 min 0 min 46 W/m 12,9 km/h (3 Bft) 95,65 %
05.06.2023 20:38 23,5 C 22,8 C 18,9 C 47 % 1018,2 hPa 0,0 l/m 0 min 0 min 45 W/m 9,7 km/h (2 Bft) 95,74 %
05.06.2023 20:40 23,5 C 22,8 C 18,9 C 48 % 1018,3 hPa 0,0 l/m 0 min 0 min 44 W/m 6,4 km/h (2 Bft) 95,74 %
05.06.2023 20:42 23,5 C 22,8 C 18,9 C 47 % 1018,3 hPa 0,0 l/m 0 min 0 min 41 W/m 6,4 km/h (2 Bft) 100,00 %
05.06.2023 20:44 23,4 C 22,8 C 18,9 C 48 % 1018,2 hPa 0,0 l/m 0 min 0 min 40 W/m 6,4 km/h (2 Bft) 100,00 %
05.06.2023 20:46 23,4 C 22,8 C 18,9 C 49 % 1018,2 hPa 0,0 l/m 0 min 0 min 39 W/m 3,2 km/h (1 Bft) 100,00 %
05.06.2023 20:48 23,4 C 22,8 C 18,3 C 49 % 1018,3 hPa 0,0 l/m 0 min 0 min 37 W/m 9,7 km/h (2 Bft) 100,00 %
05.06.2023 20:50 23,4 C 22,8 C 18,9 C 48 % 1018,3 hPa 0,0 l/m 0 min 0 min 36 W/m 16,1 km/h (3 Bft) 100,00 %
05.06.2023 20:52 23,4 C 22,8 C 18,9 C 48 % 1018,3 hPa 0,0 l/m 0 min 0 min 34 W/m 9,7 km/h (2 Bft) 100,00 %
05.06.2023 20:54 23,4 C 22,8 C 18,9 C 48 % 1018,3 hPa 0,0 l/m 0 min 0 min 33 W/m 3,2 km/h (1 Bft) 100,00 %
05.06.2023 20:56 23,3 C 22,2 C 18,3 C 48 % 1018,3 hPa 0,0 l/m 0 min 0 min 32 W/m 12,9 km/h (3 Bft) 100,00 %
05.06.2023 20:58 23,3 C 22,2 C 18,3 C 49 % 1018,3 hPa 0,0 l/m 0 min 0 min 32 W/m 6,4 km/h (2 Bft) 100,00 %
05.06.2023 21:00 23,3 C 22,2 C 18,3 C 49 % 1018,3 hPa 0,0 l/m 0 min 0 min 30 W/m 3,2 km/h (1 Bft) 97,87 %
05.06.2023 21:02 23,3 C 22,2 C 18,3 C 48 % 1018,3 hPa 0,0 l/m 0 min 0 min 28 W/m 12,9 km/h (3 Bft) 95,74 %
05.06.2023 21:04 23,2 C 22,2 C 18,3 C 49 % 1018,3 hPa 0,0 l/m 0 min 0 min 27 W/m 3,2 km/h (1 Bft) 97,87 %
05.06.2023 21:06 23,2 C 22,2 C 18,3 C 50 % 1018,3 hPa 0,0 l/m 0 min 0 min 26 W/m 6,4 km/h (2 Bft) 100,00 %
05.06.2023 21:08 23,1 C 22,2 C 18,3 C 49 % 1018,4 hPa 0,0 l/m 0 min 0 min 25 W/m 6,4 km/h (2 Bft) 94,29 %
05.06.2023 21:10 23,1 C 22,2 C 18,3 C 49 % 1018,3 hPa 0,0 l/m 0 min 0 min 24 W/m 3,2 km/h (1 Bft) 100,00 %
05.06.2023 21:12 23,0 C 22,2 C 18,3 C 50 % 1018,4 hPa 0,0 l/m 0 min 0 min 22 W/m 3,2 km/h (1 Bft) 97,87 %
05.06.2023 21:14 22,9 C 21,7 C 17,8 C 51 % 1018,3 hPa 0,0 l/m 0 min 0 min 21 W/m 3,2 km/h (1 Bft) 100,00 %
05.06.2023 21:16 22,9 C 21,7 C 17,8 C 51 % 1018,3 hPa 0,0 l/m 0 min 0 min 20 W/m 3,2 km/h (1 Bft) 100,00 %
05.06.2023 21:18 22,8 C 21,7 C 17,8 C 50 % 1018,3 hPa 0,0 l/m 0 min 0 min 19 W/m 3,2 km/h (1 Bft) 100,00 %
05.06.2023 21:20 22,8 C 21,7 C 17,8 C 51 % 1018,3 hPa 0,0 l/m 0 min 0 min 18 W/m 6,4 km/h (2 Bft) 100,00 %
05.06.2023 21:22 22,7 C 21,7 C 17,8 C 51 % 1018,3 hPa 0,0 l/m 0 min 0 min 16 W/m 3,2 km/h (1 Bft) 100,00 %
05.06.2023 21:24 22,7 C 21,7 C 17,8 C 50 % 1018,3 hPa 0,0 l/m 0 min 0 min 15 W/m 6,4 km/h (2 Bft) 100,00 %
05.06.2023 21:26 22,6 C 21,7 C 17,8 C 50 % 1018,3 hPa 0,0 l/m 0 min 0 min 14 W/m 9,7 km/h (2 Bft) 100,00 %
05.06.2023 21:28 22,6 C 21,7 C 17,8 C 51 % 1018,4 hPa 0,0 l/m 0 min 0 min 12 W/m 3,2 km/h (1 Bft) 100,00 %
05.06.2023 21:30 22,5 C 21,7 C 17,8 C 52 % 1018,4 hPa 0,0 l/m 0 min 0 min 12 W/m 3,2 km/h (1 Bft) 100,00 %
05.06.2023 21:32 22,4 C 21,1 C 17,8 C 51 % 1018,4 hPa 0,0 l/m 0 min 0 min 11 W/m 3,2 km/h (1 Bft) 97,87 %
05.06.2023 21:34 22,4 C 21,1 C 17,8 C 51 % 1018,5 hPa 0,0 l/m 0 min 0 min 10 W/m 3,2 km/h (1 Bft) 100,00 %
05.06.2023 21:36 22,3 C 21,1 C 17,2 C 51 % 1018,5 hPa 0,0 l/m 0 min 0 min 9 W/m 3,2 km/h (1 Bft) 100,00 %
05.06.2023 21:38 22,3 C 21,1 C 17,2 C 52 % 1018,4 hPa 0,0 l/m 0 min 0 min 7 W/m 3,2 km/h (1 Bft) 100,00 %
05.06.2023 21:40 22,2 C 21,1 C 17,2 C 51 % 1018,5 hPa 0,0 l/m 0 min 0 min 6 W/m 3,2 km/h (1 Bft) 97,87 %
05.06.2023 21:42 22,2 C 21,1 C 17,2 C 52 % 1018,5 hPa 0,0 l/m 0 min 0 min 5 W/m 3,2 km/h (1 Bft) 97,87 %
05.06.2023 21:44 22,2 C 21,1 C 17,2 C 52 % 1018,5 hPa 0,0 l/m 0 min 0 min 5 W/m 3,2 km/h (1 Bft) 97,87 %
05.06.2023 21:46 22,1 C 20,6 C 17,2 C 53 % 1018,5 hPa 0,0 l/m 0 min 0 min 1 W/m 3,2 km/h (1 Bft) 97,87 %
05.06.2023 21:48 22,1 C 20,6 C 17,2 C 52 % 1018,5 hPa 0,0 l/m 0 min 0 min 0 W/m 3,2 km/h (1 Bft) 97,87 %
05.06.2023 21:50 22,0 C 20,6 C 17,2 C 52 % 1018,6 hPa 0,0 l/m 0 min 0 min 0 W/m 6,4 km/h (2 Bft) 97,83 %
05.06.2023 21:52 21,9 C 20,6 C 17,2 C 53 % 1018,6 hPa 0,0 l/m 0 min 0 min 0 W/m 3,2 km/h (1 Bft) 95,74 %
05.06.2023 21:54 21,9 C 20,6 C 16,7 C 53 % 1018,6 hPa 0,0 l/m 0 min 0 min 0 W/m 3,2 km/h (1 Bft) 97,87 %
05.06.2023 21:56 21,8 C 20,6 C 16,7 C 53 % 1018,6 hPa 0,0 l/m 0 min 0 min 0 W/m 3,2 km/h (1 Bft) 97,87 %
05.06.2023 21:58 21,8 C 20,6 C 16,7 C 53 % 1018,6 hPa 0,0 l/m 0 min 0 min 0 W/m 3,2 km/h (1 Bft) 97,92 %
05.06.2023 22:00 21,7 C 20,6 C 16,7 C 53 % 1018,6 hPa 0,0 l/m 0 min 0 min 0 W/m 3,2 km/h (1 Bft) 97,87 %
05.06.2023 22:02 21,7 C 20,6 C 16,7 C 53 % 1018,6 hPa 0,0 l/m 0 min 0 min 0 W/m 3,2 km/h (1 Bft) 93,62 %
05.06.2023 22:04 21,6 C 20,0 C 16,7 C 54 % 1018,7 hPa 0,0 l/m 0 min 0 min 0 W/m 0,0 km/h (0 Bft) 97,83 %
05.06.2023 22:06 21,6 C 20,0 C 16,7 C 54 % 1018,8 hPa 0,0 l/m 0 min 0 min 0 W/m 3,2 km/h (1 Bft) 97,92 %
05.06.2023 22:08 21,5 C 20,0 C 16,7 C 54 % 1018,7 hPa 0,0 l/m 0 min 0 min 0 W/m 3,2 km/h (1 Bft) 95,74 %
05.06.2023 22:10 21,4 C 20,0 C 16,7 C 54 % 1018,8 hPa 0,0 l/m 0 min 0 min 0 W/m 0,0 km/h (0 Bft) 100,00 %
05.06.2023 22:12 21,4 C 20,0 C 16,7 C 55 % 1018,8 hPa 0,0 l/m 0 min 0 min 0 W/m 0,0 km/h (0 Bft) 97,87 %
05.06.2023 22:14 21,3 C 20,0 C 16,1 C 55 % 1018,8 hPa 0,0 l/m 0 min 0 min 0 W/m 3,2 km/h (1 Bft) 97,87 %
05.06.2023 22:16 21,3 C 20,0 C 16,1 C 55 % 1018,9 hPa 0,0 l/m 0 min 0 min 0 W/m 0,0 km/h (0 Bft) 100,00 %
05.06.2023 22:18 21,2 C 20,0 C 16,1 C 55 % 1018,8 hPa 0,0 l/m 0 min 0 min 0 W/m 3,2 km/h (1 Bft) 100,00 %
05.06.2023 22:20 21,2 C 20,0 C 16,1 C 55 % 1018,9 hPa 0,0 l/m 0 min 0 min 0 W/m 3,2 km/h (1 Bft) 100,00 %
05.06.2023 22:22 21,1 C 19,4 C 16,1 C 55 % 1018,9 hPa 0,0 l/m 0 min 0 min 0 W/m 3,2 km/h (1 Bft) 97,87 %
05.06.2023 22:24 21,1 C 19,4 C 16,1 C 55 % 1019,0 hPa 0,0 l/m 0 min 0 min 0 W/m 3,2 km/h (1 Bft) 100,00 %
05.06.2023 22:26 21,1 C 19,4 C 16,1 C 55 % 1018,9 hPa 0,0 l/m 0 min 0 min 0 W/m 3,2 km/h (1 Bft) 97,87 %
05.06.2023 22:28 20,9 C 19,4 C 16,1 C 56 % 1018,9 hPa 0,0 l/m 0 min 0 min 0 W/m 3,2 km/h (1 Bft) 100,00 %
05.06.2023 22:30 20,9 C 19,4 C 16,1 C 56 % 1018,9 hPa 0,0 l/m 0 min 0 min 0 W/m 3,2 km/h (1 Bft) 97,87 %
05.06.2023 22:32 20,9 C 19,4 C 16,1 C 56 % 1018,9 hPa 0,0 l/m 0 min 0 min 0 W/m 3,2 km/h (1 Bft) 100,00 %
05.06.2023 22:34 20,8 C 19,4 C 16,1 C 56 % 1018,9 hPa 0,0 l/m 0 min 0 min 0 W/m 3,2 km/h (1 Bft) 100,00 %
05.06.2023 22:36 20,8 C 19,4 C 16,1 C 57 % 1018,9 hPa 0,0 l/m 0 min 0 min 0 W/m 3,2 km/h (1 Bft) 100,00 %
05.06.2023 22:38 20,7 C 19,4 C 15,6 C 57 % 1018,9 hPa 0,0 l/m 0 min 0 min 0 W/m 3,2 km/h (1 Bft) 100,00 %
05.06.2023 22:40 20,7 C 19,4 C 15,6 C 57 % 1018,9 hPa 0,0 l/m 0 min 0 min 0 W/m 6,4 km/h (2 Bft) 97,87 %
05.06.2023 22:42 20,7 C 19,4 C 15,6 C 57 % 1018,9 hPa 0,0 l/m 0 min 0 min 0 W/m 3,2 km/h (1 Bft) 97,87 %
05.06.2023 22:44 20,6 C 18,9 C 15,6 C 58 % 1018,9 hPa 0,0 l/m 0 min 0 min 0 W/m 6,4 km/h (2 Bft) 93,75 %
05.06.2023 22:46 20,6 C 18,9 C 15,6 C 57 % 1018,9 hPa 0,0 l/m 0 min 0 min 0 W/m 3,2 km/h (1 Bft) 97,22 %
05.06.2023 22:48 20,5 C 18,9 C 15,6 C 57 % 1019,0 hPa 0,0 l/m 0 min 0 min 0 W/m 6,4 km/h (2 Bft) 93,62 %
05.06.2023 22:50 20,4 C 18,9 C 15,6 C 58 % 1019,0 hPa 0,0 l/m 0 min 0 min 0 W/m 9,7 km/h (2 Bft) 93,48 %
05.06.2023 22:52 20,4 C 18,9 C 15,6 C 58 % 1019,0 hPa 0,0 l/m 0 min 0 min 0 W/m 9,7 km/h (2 Bft) 95,74 %
05.06.2023 22:54 20,3 C 18,9 C 15,6 C 58 % 1019,0 hPa 0,0 l/m 0 min 0 min 0 W/m 3,2 km/h (1 Bft) 95,74 %
05.06.2023 22:56 20,3 C 18,9 C 15,6 C 59 % 1019,0 hPa 0,0 l/m 0 min 0 min 0 W/m 6,4 km/h (2 Bft) 97,87 %
05.06.2023 22:58 20,2 C 18,9 C 15,6 C 58 % 1019,0 hPa 0,0 l/m 0 min 0 min 0 W/m 6,4 km/h (2 Bft) 95,83 %
05.06.2023 23:00 20,2 C 18,9 C 15,6 C 58 % 1019,1 hPa 0,0 l/m 0 min 0 min 0 W/m 3,2 km/h (1 Bft) 93,62 %
05.06.2023 23:02 20,1 C 18,9 C 15,6 C 59 % 1019,0 hPa 0,0 l/m 0 min 0 min 0 W/m 3,2 km/h (1 Bft) 91,49 %
05.06.2023 23:04 20,1 C 18,9 C 15,6 C 58 % 1019,0 hPa 0,0 l/m 0 min 0 min 0 W/m 3,2 km/h (1 Bft) 95,65 %
05.06.2023 23:06 20,1 C 18,9 C 15,6 C 59 % 1019,0 hPa 0,0 l/m 0 min 0 min 0 W/m 6,4 km/h (2 Bft) 93,44 %
05.06.2023 23:08 20,0 C 18,9 C 15,6 C 59 % 1019,0 hPa 0,0 l/m 0 min 0 min 0 W/m 3,2 km/h (1 Bft) 94,29 %
05.06.2023 23:10 20,0 C 18,9 C 15,6 C 59 % 1019,0 hPa 0,0 l/m 0 min 0 min 0 W/m 6,4 km/h (2 Bft) 95,74 %
05.06.2023 23:12 19,9 C 18,9 C 15,6 C 59 % 1019,1 hPa 0,0 l/m 0 min 0 min 0 W/m 6,4 km/h (2 Bft) 95,74 %
05.06.2023 23:14 19,9 C 18,9 C 15,0 C 59 % 1019,1 hPa 0,0 l/m 0 min 0 min 0 W/m 6,4 km/h (2 Bft) 95,74 %
05.06.2023 23:16 19,8 C 18,9 C 15,0 C 60 % 1019,1 hPa 0,0 l/m 0 min 0 min 0 W/m 6,4 km/h (2 Bft) 93,75 %
05.06.2023 23:18 19,8 C 18,9 C 15,0 C 60 % 1019,1 hPa 0,0 l/m 0 min 0 min 0 W/m 6,4 km/h (2 Bft) 93,48 %
05.06.2023 23:20 19,7 C 18,9 C 15,0 C 61 % 1019,1 hPa 0,0 l/m 0 min 0 min 0 W/m 6,4 km/h (2 Bft) 95,74 %
05.06.2023 23:22 19,7 C 18,9 C 15,0 C 61 % 1019,1 hPa 0,0 l/m 0 min 0 min 0 W/m 6,4 km/h (2 Bft) 93,62 %
05.06.2023 23:24 19,7 C 18,9 C 15,0 C 61 % 1019,1 hPa 0,0 l/m 0 min 0 min 0 W/m 6,4 km/h (2 Bft) 95,74 %
05.06.2023 23:26 19,6 C 18,9 C 15,0 C 62 % 1019,1 hPa 0,0 l/m 0 min 0 min 0 W/m 6,4 km/h (2 Bft) 93,75 %
05.06.2023 23:28 19,6 C 18,3 C 15,0 C 62 % 1019,1 hPa 0,0 l/m 0 min 0 min 0 W/m 3,2 km/h (1 Bft) 97,87 %
05.06.2023 23:30 19,5 C 18,3 C 15,0 C 62 % 1019,0 hPa 0,0 l/m 0 min 0 min 0 W/m 6,4 km/h (2 Bft) 93,62 %
05.06.2023 23:32 19,4 C 18,3 C 15,0 C 63 % 1019,1 hPa 0,0 l/m 0 min 0 min 0 W/m 6,4 km/h (2 Bft) 95,65 %
05.06.2023 23:34 19,4 C 18,3 C 15,0 C 63 % 1019,1 hPa 0,0 l/m 0 min 0 min 0 W/m 6,4 km/h (2 Bft) 95,74 %
05.06.2023 23:36 19,3 C 18,3 C 15,0 C 64 % 1019,2 hPa 0,0 l/m 0 min 0 min 0 W/m 16,1 km/h (3 Bft) 97,87 %
05.06.2023 23:38 19,3 C 18,3 C 15,0 C 65 % 1019,1 hPa 0,0 l/m 0 min 0 min 0 W/m 9,7 km/h (2 Bft) 95,74 %
05.06.2023 23:40 19,3 C 18,3 C 15,0 C 65 % 1019,2 hPa 0,0 l/m 0 min 0 min 0 W/m 9,7 km/h (2 Bft) 97,87 %
05.06.2023 23:42 19,2 C 18,3 C 14,4 C 66 % 1019,1 hPa 0,0 l/m 0 min 0 min 0 W/m 6,4 km/h (2 Bft) 95,74 %
05.06.2023 23:44 19,1 C 18,3 C 14,4 C 67 % 1019,2 hPa 0,0 l/m 0 min 0 min 0 W/m 6,4 km/h (2 Bft) 97,87 %
05.06.2023 23:46 19,1 C 18,3 C 14,4 C 67 % 1019,2 hPa 0,0 l/m 0 min 0 min 0 W/m 6,4 km/h (2 Bft) 95,65 %
05.06.2023 23:48 19,1 C 17,8 C 14,4 C 68 % 1019,2 hPa 0,0 l/m 0 min 0 min 0 W/m 9,7 km/h (2 Bft) 97,87 %
05.06.2023 23:50 19,0 C 17,8 C 14,4 C 68 % 1019,2 hPa 0,0 l/m 0 min 0 min 0 W/m 16,1 km/h (3 Bft) 97,87 %
05.06.2023 23:52 18,9 C 17,8 C 14,4 C 68 % 1019,2 hPa 0,0 l/m 0 min 0 min 0 W/m 12,9 km/h (3 Bft) 97,87 %
05.06.2023 23:54 18,9 C 17,8 C 14,4 C 69 % 1019,2 hPa 0,0 l/m 0 min 0 min 0 W/m 9,7 km/h (2 Bft) 98,00 %
05.06.2023 23:56 18,8 C 17,8 C 14,4 C 69 % 1019,2 hPa 0,0 l/m 0 min 0 min 0 W/m 9,7 km/h (2 Bft) 97,87 %
05.06.2023 23:58 18,8 C 17,8 C 14,4 C 70 % 1019,2 hPa 0,0 l/m 0 min 0 min 0 W/m 6,4 km/h (2 Bft) 97,30 %
_ Min-Zeit 06:12 04:54 05:10 15:58 18:52 - - - - 00:00 03:30
Minimum _ 12,7 C 12,2 C 8,9 C 37 % 1017,9 hPa - - - - 0,0 km/h (0 Bft) 74,42 %
_ Max-Zeit 17:26 14:28 13:22 06:08 00:38 00:00 12:03 00:00 13:36 13:14 00:00
Maximum _ 27,3 C 32,8 C 29,4 C 83 % 1021,5 hPa 0,0 l/m 5 min 0 min 914 W/m 25,7 km/h
W-NW (4 Bft)
100,00 %
Durchschnitt _ 20,2 C 21,7 C 16,9 C 60 % 1020,1 hPa #0,0 l/m #12:06 h #0 min. 488 W/m 8,5 km/h (2 Bft) 97,38 %
© 2023 W. Hausmann